<?xml version="1.0" encoding="UTF-8" standalone="no" ?>
<gpx xmlns="http://www.topografix.com/GPX/1/1" xmlns:xsi="http://www.w3.org/2001/XMLSchema-instance" xsi:schemaLocation="http://www.topografix.com/GPX/1/1 http://www.topografix.com/GPX/1/1/gpx.xsd" version="1.1" creator="VisuGPX - https://www.visugpx.com">
  <metadata>
    <name>2014-05-08 Le Beulay</name>
    <desc><![CDATA[Randonnée des Forts Trotters]]></desc>
  </metadata>
  <trk>
    <name><![CDATA[--Beulay (Le)-- OR-3512773:FORTS TROTTEURS - 2014-05-08]]></name>
    <trkseg>
      <trkpt lat="48.30171" lon="7.06983">
        <ele>401</ele>
        <time>2016-01-10T20:13:16Z</time>
      </trkpt>
      <trkpt lat="48.30166" lon="7.06959">
        <ele>400</ele>
        <time>2016-01-10T20:15:16Z</time>
      </trkpt>
      <trkpt lat="48.30158" lon="7.06931">
        <ele>400</ele>
        <time>2016-01-10T20:17:16Z</time>
      </trkpt>
      <trkpt lat="48.30148" lon="7.06898">
        <ele>401</ele>
        <time>2016-01-10T20:19:16Z</time>
      </trkpt>
      <trkpt lat="48.3014" lon="7.06875">
        <ele>402</ele>
        <time>2016-01-10T20:21:16Z</time>
      </trkpt>
      <trkpt lat="48.30134" lon="7.06853">
        <ele>402</ele>
        <time>2016-01-10T20:23:16Z</time>
      </trkpt>
      <trkpt lat="48.30135" lon="7.06839">
        <ele>402</ele>
        <time>2016-01-10T20:25:16Z</time>
      </trkpt>
      <trkpt lat="48.3014" lon="7.06819">
        <ele>403</ele>
        <time>2016-01-10T20:27:16Z</time>
      </trkpt>
      <trkpt lat="48.30145" lon="7.06802">
        <ele>403</ele>
        <time>2016-01-10T20:29:16Z</time>
      </trkpt>
      <trkpt lat="48.30148" lon="7.06783">
        <ele>404</ele>
        <time>2016-01-10T20:31:16Z</time>
      </trkpt>
      <trkpt lat="48.30149" lon="7.0676">
        <ele>404</ele>
        <time>2016-01-10T20:33:16Z</time>
      </trkpt>
      <trkpt lat="48.30143" lon="7.0674">
        <ele>406</ele>
        <time>2016-01-10T20:35:16Z</time>
      </trkpt>
      <trkpt lat="48.30133" lon="7.0671">
        <ele>411</ele>
        <time>2016-01-10T20:37:16Z</time>
      </trkpt>
      <trkpt lat="48.30139" lon="7.06692">
        <ele>413</ele>
        <time>2016-01-10T20:39:16Z</time>
      </trkpt>
      <trkpt lat="48.30153" lon="7.06677">
        <ele>414</ele>
        <time>2016-01-10T20:41:16Z</time>
      </trkpt>
      <trkpt lat="48.30164" lon="7.06667">
        <ele>415</ele>
        <time>2016-01-10T20:43:16Z</time>
      </trkpt>
      <trkpt lat="48.30176" lon="7.06655">
        <ele>416</ele>
        <time>2016-01-10T20:45:16Z</time>
      </trkpt>
      <trkpt lat="48.30186" lon="7.0664">
        <ele>418</ele>
        <time>2016-01-10T20:47:16Z</time>
      </trkpt>
      <trkpt lat="48.30195" lon="7.06615">
        <ele>421</ele>
        <time>2016-01-10T20:49:16Z</time>
      </trkpt>
      <trkpt lat="48.302" lon="7.06601">
        <ele>422</ele>
        <time>2016-01-10T20:51:16Z</time>
      </trkpt>
      <trkpt lat="48.30206" lon="7.06581">
        <ele>424</ele>
        <time>2016-01-10T20:53:16Z</time>
      </trkpt>
      <trkpt lat="48.30215" lon="7.06558">
        <ele>426</ele>
        <time>2016-01-10T20:55:16Z</time>
      </trkpt>
      <trkpt lat="48.30227" lon="7.06513">
        <ele>430</ele>
        <time>2016-01-10T20:57:16Z</time>
      </trkpt>
      <trkpt lat="48.30235" lon="7.06493">
        <ele>432</ele>
        <time>2016-01-10T20:59:16Z</time>
      </trkpt>
      <trkpt lat="48.3024" lon="7.06472">
        <ele>434</ele>
        <time>2016-01-10T21:01:16Z</time>
      </trkpt>
      <trkpt lat="48.30247" lon="7.06452">
        <ele>436</ele>
        <time>2016-01-10T21:03:16Z</time>
      </trkpt>
      <trkpt lat="48.30257" lon="7.06427">
        <ele>439</ele>
        <time>2016-01-10T21:05:16Z</time>
      </trkpt>
      <trkpt lat="48.30268" lon="7.06405">
        <ele>441</ele>
        <time>2016-01-10T21:07:16Z</time>
      </trkpt>
      <trkpt lat="48.3028" lon="7.0638">
        <ele>445</ele>
        <time>2016-01-10T21:09:16Z</time>
      </trkpt>
      <trkpt lat="48.3029" lon="7.0636">
        <ele>447</ele>
        <time>2016-01-10T21:11:16Z</time>
      </trkpt>
      <trkpt lat="48.30299" lon="7.06332">
        <ele>450</ele>
        <time>2016-01-10T21:13:16Z</time>
      </trkpt>
      <trkpt lat="48.30307" lon="7.06303">
        <ele>452</ele>
        <time>2016-01-10T21:15:16Z</time>
      </trkpt>
      <trkpt lat="48.30316" lon="7.06287">
        <ele>454</ele>
        <time>2016-01-10T21:17:16Z</time>
      </trkpt>
      <trkpt lat="48.30323" lon="7.06265">
        <ele>456</ele>
        <time>2016-01-10T21:19:16Z</time>
      </trkpt>
      <trkpt lat="48.30334" lon="7.0624">
        <ele>459</ele>
        <time>2016-01-10T21:21:16Z</time>
      </trkpt>
      <trkpt lat="48.30346" lon="7.06215">
        <ele>460</ele>
        <time>2016-01-10T21:23:16Z</time>
      </trkpt>
      <trkpt lat="48.30355" lon="7.06212">
        <ele>461</ele>
        <time>2016-01-10T21:25:16Z</time>
      </trkpt>
      <trkpt lat="48.30368" lon="7.06203">
        <ele>462</ele>
        <time>2016-01-10T21:27:16Z</time>
      </trkpt>
      <trkpt lat="48.30375" lon="7.06194">
        <ele>463</ele>
        <time>2016-01-10T21:29:16Z</time>
      </trkpt>
      <trkpt lat="48.30381" lon="7.06175">
        <ele>464</ele>
        <time>2016-01-10T21:31:16Z</time>
      </trkpt>
      <trkpt lat="48.30382" lon="7.06149">
        <ele>467</ele>
        <time>2016-01-10T21:33:16Z</time>
      </trkpt>
      <trkpt lat="48.30385" lon="7.06129">
        <ele>469</ele>
        <time>2016-01-10T21:35:16Z</time>
      </trkpt>
      <trkpt lat="48.30387" lon="7.06108">
        <ele>471</ele>
        <time>2016-01-10T21:37:16Z</time>
      </trkpt>
      <trkpt lat="48.3039" lon="7.06093">
        <ele>473</ele>
        <time>2016-01-10T21:39:16Z</time>
      </trkpt>
      <trkpt lat="48.30396" lon="7.06081">
        <ele>475</ele>
        <time>2016-01-10T21:41:16Z</time>
      </trkpt>
      <trkpt lat="48.30401" lon="7.06063">
        <ele>478</ele>
        <time>2016-01-10T21:43:16Z</time>
      </trkpt>
      <trkpt lat="48.30411" lon="7.06043">
        <ele>482</ele>
        <time>2016-01-10T21:45:16Z</time>
      </trkpt>
      <trkpt lat="48.30418" lon="7.06025">
        <ele>486</ele>
        <time>2016-01-10T21:47:16Z</time>
      </trkpt>
      <trkpt lat="48.30425" lon="7.06005">
        <ele>490</ele>
        <time>2016-01-10T21:49:16Z</time>
      </trkpt>
      <trkpt lat="48.30431" lon="7.05983">
        <ele>493</ele>
        <time>2016-01-10T21:51:16Z</time>
      </trkpt>
      <trkpt lat="48.30439" lon="7.05965">
        <ele>495</ele>
        <time>2016-01-10T21:53:16Z</time>
      </trkpt>
      <trkpt lat="48.30452" lon="7.05941">
        <ele>498</ele>
        <time>2016-01-10T21:55:16Z</time>
      </trkpt>
      <trkpt lat="48.30465" lon="7.05909">
        <ele>501</ele>
        <time>2016-01-10T21:57:16Z</time>
      </trkpt>
      <trkpt lat="48.30478" lon="7.05883">
        <ele>502</ele>
        <time>2016-01-10T21:59:16Z</time>
      </trkpt>
      <trkpt lat="48.30488" lon="7.0586">
        <ele>503</ele>
        <time>2016-01-10T22:01:16Z</time>
      </trkpt>
      <trkpt lat="48.30499" lon="7.05837">
        <ele>505</ele>
        <time>2016-01-10T22:03:16Z</time>
      </trkpt>
      <trkpt lat="48.30511" lon="7.05811">
        <ele>502</ele>
        <time>2016-01-10T22:05:16Z</time>
      </trkpt>
      <trkpt lat="48.30524" lon="7.05782">
        <ele>499</ele>
        <time>2016-01-10T22:07:16Z</time>
      </trkpt>
      <trkpt lat="48.30534" lon="7.05762">
        <ele>498</ele>
        <time>2016-01-10T22:09:16Z</time>
      </trkpt>
      <trkpt lat="48.30548" lon="7.05739">
        <ele>496</ele>
        <time>2016-01-10T22:11:16Z</time>
      </trkpt>
      <trkpt lat="48.3056" lon="7.05716">
        <ele>495</ele>
        <time>2016-01-10T22:13:16Z</time>
      </trkpt>
      <trkpt lat="48.3057" lon="7.05694">
        <ele>495</ele>
        <time>2016-01-10T22:15:16Z</time>
      </trkpt>
      <trkpt lat="48.30581" lon="7.05673">
        <ele>495</ele>
        <time>2016-01-10T22:17:16Z</time>
      </trkpt>
      <trkpt lat="48.30594" lon="7.05643">
        <ele>496</ele>
        <time>2016-01-10T22:19:16Z</time>
      </trkpt>
      <trkpt lat="48.30606" lon="7.05606">
        <ele>497</ele>
        <time>2016-01-10T22:21:16Z</time>
      </trkpt>
      <trkpt lat="48.30611" lon="7.05589">
        <ele>498</ele>
        <time>2016-01-10T22:23:16Z</time>
      </trkpt>
      <trkpt lat="48.30616" lon="7.0556">
        <ele>498</ele>
        <time>2016-01-10T22:25:16Z</time>
      </trkpt>
      <trkpt lat="48.30623" lon="7.05532">
        <ele>499</ele>
        <time>2016-01-10T22:27:16Z</time>
      </trkpt>
      <trkpt lat="48.30629" lon="7.05511">
        <ele>499</ele>
        <time>2016-01-10T22:29:16Z</time>
      </trkpt>
      <trkpt lat="48.30637" lon="7.05486">
        <ele>499</ele>
        <time>2016-01-10T22:31:16Z</time>
      </trkpt>
      <trkpt lat="48.30645" lon="7.05467">
        <ele>498</ele>
        <time>2016-01-10T22:33:16Z</time>
      </trkpt>
      <trkpt lat="48.30651" lon="7.05444">
        <ele>497</ele>
        <time>2016-01-10T22:35:16Z</time>
      </trkpt>
      <trkpt lat="48.30657" lon="7.05424">
        <ele>497</ele>
        <time>2016-01-10T22:37:16Z</time>
      </trkpt>
      <trkpt lat="48.30665" lon="7.05403">
        <ele>497</ele>
        <time>2016-01-10T22:39:16Z</time>
      </trkpt>
      <trkpt lat="48.30677" lon="7.05382">
        <ele>498</ele>
        <time>2016-01-10T22:41:16Z</time>
      </trkpt>
      <trkpt lat="48.30686" lon="7.05365">
        <ele>500</ele>
        <time>2016-01-10T22:43:16Z</time>
      </trkpt>
      <trkpt lat="48.30698" lon="7.05349">
        <ele>502</ele>
        <time>2016-01-10T22:45:16Z</time>
      </trkpt>
      <trkpt lat="48.3071" lon="7.05336">
        <ele>504</ele>
        <time>2016-01-10T22:47:16Z</time>
      </trkpt>
      <trkpt lat="48.30721" lon="7.05323">
        <ele>505</ele>
        <time>2016-01-10T22:49:16Z</time>
      </trkpt>
      <trkpt lat="48.30728" lon="7.053">
        <ele>507</ele>
        <time>2016-01-10T22:51:16Z</time>
      </trkpt>
      <trkpt lat="48.30732" lon="7.0527">
        <ele>508</ele>
        <time>2016-01-10T22:53:16Z</time>
      </trkpt>
      <trkpt lat="48.30737" lon="7.05243">
        <ele>509</ele>
        <time>2016-01-10T22:55:16Z</time>
      </trkpt>
      <trkpt lat="48.30745" lon="7.0522">
        <ele>511</ele>
        <time>2016-01-10T22:57:16Z</time>
      </trkpt>
      <trkpt lat="48.30753" lon="7.05197">
        <ele>512</ele>
        <time>2016-01-10T22:59:16Z</time>
      </trkpt>
      <trkpt lat="48.30759" lon="7.05178">
        <ele>513</ele>
        <time>2016-01-10T23:01:16Z</time>
      </trkpt>
      <trkpt lat="48.30762" lon="7.05162">
        <ele>514</ele>
        <time>2016-01-10T23:03:16Z</time>
      </trkpt>
      <trkpt lat="48.30767" lon="7.05127">
        <ele>516</ele>
        <time>2016-01-10T23:05:16Z</time>
      </trkpt>
      <trkpt lat="48.30771" lon="7.05099">
        <ele>518</ele>
        <time>2016-01-10T23:07:16Z</time>
      </trkpt>
      <trkpt lat="48.30774" lon="7.05064">
        <ele>521</ele>
        <time>2016-01-10T23:09:16Z</time>
      </trkpt>
      <trkpt lat="48.30778" lon="7.05039">
        <ele>523</ele>
        <time>2016-01-10T23:11:16Z</time>
      </trkpt>
      <trkpt lat="48.30783" lon="7.0501">
        <ele>526</ele>
        <time>2016-01-10T23:13:16Z</time>
      </trkpt>
      <trkpt lat="48.30786" lon="7.04978">
        <ele>528</ele>
        <time>2016-01-10T23:15:16Z</time>
      </trkpt>
      <trkpt lat="48.30792" lon="7.04949">
        <ele>532</ele>
        <time>2016-01-10T23:17:16Z</time>
      </trkpt>
      <trkpt lat="48.30805" lon="7.04906">
        <ele>539</ele>
        <time>2016-01-10T23:19:16Z</time>
      </trkpt>
      <trkpt lat="48.30821" lon="7.04893">
        <ele>545</ele>
        <time>2016-01-10T23:21:16Z</time>
      </trkpt>
      <trkpt lat="48.30835" lon="7.04879">
        <ele>550</ele>
        <time>2016-01-10T23:23:16Z</time>
      </trkpt>
      <trkpt lat="48.30854" lon="7.04866">
        <ele>551</ele>
        <time>2016-01-10T23:25:16Z</time>
      </trkpt>
      <trkpt lat="48.30874" lon="7.04851">
        <ele>553</ele>
        <time>2016-01-10T23:27:16Z</time>
      </trkpt>
      <trkpt lat="48.30887" lon="7.04849">
        <ele>552</ele>
        <time>2016-01-10T23:29:16Z</time>
      </trkpt>
      <trkpt lat="48.30906" lon="7.04849">
        <ele>551</ele>
        <time>2016-01-10T23:31:16Z</time>
      </trkpt>
      <trkpt lat="48.30927" lon="7.04846">
        <ele>549</ele>
        <time>2016-01-10T23:33:16Z</time>
      </trkpt>
      <trkpt lat="48.30945" lon="7.04842">
        <ele>546</ele>
        <time>2016-01-10T23:35:16Z</time>
      </trkpt>
      <trkpt lat="48.30956" lon="7.04831">
        <ele>545</ele>
        <time>2016-01-10T23:37:16Z</time>
      </trkpt>
      <trkpt lat="48.30969" lon="7.04815">
        <ele>543</ele>
        <time>2016-01-10T23:39:16Z</time>
      </trkpt>
      <trkpt lat="48.3098" lon="7.04788">
        <ele>542</ele>
        <time>2016-01-10T23:41:16Z</time>
      </trkpt>
      <trkpt lat="48.3097" lon="7.0476">
        <ele>546</ele>
        <time>2016-01-10T23:43:16Z</time>
      </trkpt>
      <trkpt lat="48.30961" lon="7.04735">
        <ele>550</ele>
        <time>2016-01-10T23:45:16Z</time>
      </trkpt>
      <trkpt lat="48.30957" lon="7.04705">
        <ele>553</ele>
        <time>2016-01-10T23:47:16Z</time>
      </trkpt>
      <trkpt lat="48.30953" lon="7.04679">
        <ele>556</ele>
        <time>2016-01-10T23:49:16Z</time>
      </trkpt>
      <trkpt lat="48.30951" lon="7.04652">
        <ele>558</ele>
        <time>2016-01-10T23:51:16Z</time>
      </trkpt>
      <trkpt lat="48.3095" lon="7.04626">
        <ele>559</ele>
        <time>2016-01-10T23:53:16Z</time>
      </trkpt>
      <trkpt lat="48.30948" lon="7.04593">
        <ele>560</ele>
        <time>2016-01-10T23:55:16Z</time>
      </trkpt>
      <trkpt lat="48.30949" lon="7.04566">
        <ele>561</ele>
        <time>2016-01-10T23:57:16Z</time>
      </trkpt>
      <trkpt lat="48.30953" lon="7.04536">
        <ele>562</ele>
        <time>2016-01-10T23:59:16Z</time>
      </trkpt>
      <trkpt lat="48.30959" lon="7.04516">
        <ele>562</ele>
        <time>2016-01-11T00:01:16Z</time>
      </trkpt>
      <trkpt lat="48.30961" lon="7.04502">
        <ele>563</ele>
        <time>2016-01-11T00:03:16Z</time>
      </trkpt>
      <trkpt lat="48.30962" lon="7.04485">
        <ele>564</ele>
        <time>2016-01-11T00:05:16Z</time>
      </trkpt>
      <trkpt lat="48.30967" lon="7.0447">
        <ele>565</ele>
        <time>2016-01-11T00:07:16Z</time>
      </trkpt>
      <trkpt lat="48.30975" lon="7.0445">
        <ele>565</ele>
        <time>2016-01-11T00:09:16Z</time>
      </trkpt>
      <trkpt lat="48.30982" lon="7.04432">
        <ele>566</ele>
        <time>2016-01-11T00:11:16Z</time>
      </trkpt>
      <trkpt lat="48.30992" lon="7.04426">
        <ele>564</ele>
        <time>2016-01-11T00:13:16Z</time>
      </trkpt>
      <trkpt lat="48.31007" lon="7.04426">
        <ele>564</ele>
        <time>2016-01-11T00:15:16Z</time>
      </trkpt>
      <trkpt lat="48.31017" lon="7.04432">
        <ele>564</ele>
        <time>2016-01-11T00:17:16Z</time>
      </trkpt>
      <trkpt lat="48.31027" lon="7.04442">
        <ele>564</ele>
        <time>2016-01-11T00:19:16Z</time>
      </trkpt>
      <trkpt lat="48.31041" lon="7.04455">
        <ele>563</ele>
        <time>2016-01-11T00:21:16Z</time>
      </trkpt>
      <trkpt lat="48.31053" lon="7.04468">
        <ele>562</ele>
        <time>2016-01-11T00:23:16Z</time>
      </trkpt>
      <trkpt lat="48.31076" lon="7.04481">
        <ele>561</ele>
        <time>2016-01-11T00:25:16Z</time>
      </trkpt>
      <trkpt lat="48.31081" lon="7.04481">
        <ele>561</ele>
        <time>2016-01-11T00:27:16Z</time>
      </trkpt>
      <trkpt lat="48.31088" lon="7.04477">
        <ele>563</ele>
        <time>2016-01-11T00:29:16Z</time>
      </trkpt>
      <trkpt lat="48.31157" lon="7.04448">
        <ele>581</ele>
        <time>2016-01-11T00:31:16Z</time>
      </trkpt>
      <trkpt lat="48.31177" lon="7.04499">
        <ele>571</ele>
        <time>2016-01-11T00:33:16Z</time>
      </trkpt>
      <trkpt lat="48.31237" lon="7.04675">
        <ele>561</ele>
        <time>2016-01-11T00:35:16Z</time>
      </trkpt>
      <trkpt lat="48.31275" lon="7.0466">
        <ele>569</ele>
        <time>2016-01-11T00:37:16Z</time>
      </trkpt>
      <trkpt lat="48.31295" lon="7.04681">
        <ele>567</ele>
        <time>2016-01-11T00:39:16Z</time>
      </trkpt>
      <trkpt lat="48.3131" lon="7.047">
        <ele>565</ele>
        <time>2016-01-11T00:41:16Z</time>
      </trkpt>
      <trkpt lat="48.3132" lon="7.0472">
        <ele>562</ele>
        <time>2016-01-11T00:43:16Z</time>
      </trkpt>
      <trkpt lat="48.31332" lon="7.04742">
        <ele>560</ele>
        <time>2016-01-11T00:45:16Z</time>
      </trkpt>
      <trkpt lat="48.31344" lon="7.04764">
        <ele>558</ele>
        <time>2016-01-11T00:47:16Z</time>
      </trkpt>
      <trkpt lat="48.31353" lon="7.04791">
        <ele>556</ele>
        <time>2016-01-11T00:49:16Z</time>
      </trkpt>
      <trkpt lat="48.31361" lon="7.04816">
        <ele>555</ele>
        <time>2016-01-11T00:51:16Z</time>
      </trkpt>
      <trkpt lat="48.31366" lon="7.04838">
        <ele>555</ele>
        <time>2016-01-11T00:53:16Z</time>
      </trkpt>
      <trkpt lat="48.31367" lon="7.04857">
        <ele>554</ele>
        <time>2016-01-11T00:55:16Z</time>
      </trkpt>
      <trkpt lat="48.31365" lon="7.04872">
        <ele>553</ele>
        <time>2016-01-11T00:57:16Z</time>
      </trkpt>
      <trkpt lat="48.31363" lon="7.049">
        <ele>552</ele>
        <time>2016-01-11T00:59:16Z</time>
      </trkpt>
      <trkpt lat="48.31359" lon="7.04937">
        <ele>551</ele>
        <time>2016-01-11T01:01:16Z</time>
      </trkpt>
      <trkpt lat="48.31352" lon="7.0498">
        <ele>550</ele>
        <time>2016-01-11T01:03:16Z</time>
      </trkpt>
      <trkpt lat="48.31346" lon="7.05016">
        <ele>549</ele>
        <time>2016-01-11T01:05:16Z</time>
      </trkpt>
      <trkpt lat="48.31349" lon="7.05053">
        <ele>548</ele>
        <time>2016-01-11T01:07:16Z</time>
      </trkpt>
      <trkpt lat="48.31351" lon="7.05084">
        <ele>548</ele>
        <time>2016-01-11T01:09:16Z</time>
      </trkpt>
      <trkpt lat="48.31358" lon="7.05106">
        <ele>549</ele>
        <time>2016-01-11T01:11:16Z</time>
      </trkpt>
      <trkpt lat="48.31367" lon="7.05133">
        <ele>550</ele>
        <time>2016-01-11T01:13:16Z</time>
      </trkpt>
      <trkpt lat="48.31374" lon="7.05154">
        <ele>551</ele>
        <time>2016-01-11T01:15:16Z</time>
      </trkpt>
      <trkpt lat="48.31378" lon="7.0518">
        <ele>550</ele>
        <time>2016-01-11T01:17:16Z</time>
      </trkpt>
      <trkpt lat="48.31382" lon="7.05206">
        <ele>550</ele>
        <time>2016-01-11T01:19:16Z</time>
      </trkpt>
      <trkpt lat="48.31388" lon="7.0523">
        <ele>550</ele>
        <time>2016-01-11T01:21:16Z</time>
      </trkpt>
      <trkpt lat="48.31394" lon="7.05202">
        <ele>553</ele>
        <time>2016-01-11T01:23:16Z</time>
      </trkpt>
      <trkpt lat="48.31401" lon="7.05165">
        <ele>557</ele>
        <time>2016-01-11T01:25:16Z</time>
      </trkpt>
      <trkpt lat="48.31409" lon="7.05124">
        <ele>560</ele>
        <time>2016-01-11T01:27:16Z</time>
      </trkpt>
      <trkpt lat="48.31417" lon="7.05084">
        <ele>564</ele>
        <time>2016-01-11T01:29:16Z</time>
      </trkpt>
      <trkpt lat="48.31423" lon="7.05055">
        <ele>564</ele>
        <time>2016-01-11T01:31:16Z</time>
      </trkpt>
      <trkpt lat="48.3143" lon="7.05026">
        <ele>564</ele>
        <time>2016-01-11T01:33:16Z</time>
      </trkpt>
      <trkpt lat="48.31426" lon="7.05014">
        <ele>565</ele>
        <time>2016-01-11T01:35:16Z</time>
      </trkpt>
      <trkpt lat="48.31423" lon="7.04991">
        <ele>565</ele>
        <time>2016-01-11T01:37:16Z</time>
      </trkpt>
      <trkpt lat="48.31422" lon="7.04967">
        <ele>565</ele>
        <time>2016-01-11T01:39:16Z</time>
      </trkpt>
      <trkpt lat="48.31421" lon="7.04934">
        <ele>566</ele>
        <time>2016-01-11T01:41:16Z</time>
      </trkpt>
      <trkpt lat="48.31425" lon="7.04899">
        <ele>565</ele>
        <time>2016-01-11T01:43:16Z</time>
      </trkpt>
      <trkpt lat="48.31422" lon="7.04866">
        <ele>565</ele>
        <time>2016-01-11T01:45:16Z</time>
      </trkpt>
      <trkpt lat="48.31422" lon="7.04829">
        <ele>564</ele>
        <time>2016-01-11T01:47:16Z</time>
      </trkpt>
      <trkpt lat="48.31417" lon="7.04797">
        <ele>565</ele>
        <time>2016-01-11T01:49:16Z</time>
      </trkpt>
      <trkpt lat="48.31411" lon="7.0477">
        <ele>564</ele>
        <time>2016-01-11T01:51:16Z</time>
      </trkpt>
      <trkpt lat="48.31401" lon="7.04737">
        <ele>564</ele>
        <time>2016-01-11T01:53:16Z</time>
      </trkpt>
      <trkpt lat="48.31393" lon="7.04708">
        <ele>565</ele>
        <time>2016-01-11T01:55:16Z</time>
      </trkpt>
      <trkpt lat="48.31376" lon="7.04682">
        <ele>568</ele>
        <time>2016-01-11T01:57:16Z</time>
      </trkpt>
      <trkpt lat="48.31361" lon="7.04658">
        <ele>571</ele>
        <time>2016-01-11T01:59:16Z</time>
      </trkpt>
      <trkpt lat="48.31348" lon="7.04642">
        <ele>573</ele>
        <time>2016-01-11T02:01:16Z</time>
      </trkpt>
      <trkpt lat="48.3133" lon="7.04626">
        <ele>575</ele>
        <time>2016-01-11T02:03:16Z</time>
      </trkpt>
      <trkpt lat="48.31317" lon="7.04611">
        <ele>576</ele>
        <time>2016-01-11T02:05:16Z</time>
      </trkpt>
      <trkpt lat="48.31276" lon="7.0456">
        <ele>579</ele>
        <time>2016-01-11T02:07:16Z</time>
      </trkpt>
      <trkpt lat="48.31253" lon="7.04498">
        <ele>582</ele>
        <time>2016-01-11T02:09:16Z</time>
      </trkpt>
      <trkpt lat="48.3125" lon="7.04466">
        <ele>587</ele>
        <time>2016-01-11T02:11:16Z</time>
      </trkpt>
      <trkpt lat="48.31235" lon="7.04465">
        <ele>585</ele>
        <time>2016-01-11T02:13:16Z</time>
      </trkpt>
      <trkpt lat="48.31201" lon="7.04413">
        <ele>592</ele>
        <time>2016-01-11T02:15:16Z</time>
      </trkpt>
      <trkpt lat="48.31187" lon="7.04391">
        <ele>597</ele>
        <time>2016-01-11T02:17:16Z</time>
      </trkpt>
      <trkpt lat="48.31172" lon="7.04384">
        <ele>599</ele>
        <time>2016-01-11T02:19:16Z</time>
      </trkpt>
      <trkpt lat="48.31155" lon="7.04385">
        <ele>596</ele>
        <time>2016-01-11T02:21:16Z</time>
      </trkpt>
      <trkpt lat="48.31119" lon="7.04386">
        <ele>590</ele>
        <time>2016-01-11T02:23:16Z</time>
      </trkpt>
      <trkpt lat="48.31103" lon="7.04381">
        <ele>588</ele>
        <time>2016-01-11T02:25:16Z</time>
      </trkpt>
      <trkpt lat="48.31088" lon="7.04369">
        <ele>588</ele>
        <time>2016-01-11T02:27:16Z</time>
      </trkpt>
      <trkpt lat="48.3107" lon="7.04355">
        <ele>589</ele>
        <time>2016-01-11T02:29:16Z</time>
      </trkpt>
      <trkpt lat="48.31052" lon="7.0434">
        <ele>589</ele>
        <time>2016-01-11T02:31:16Z</time>
      </trkpt>
      <trkpt lat="48.31041" lon="7.04326">
        <ele>590</ele>
        <time>2016-01-11T02:33:16Z</time>
      </trkpt>
      <trkpt lat="48.31028" lon="7.04314">
        <ele>590</ele>
        <time>2016-01-11T02:35:16Z</time>
      </trkpt>
      <trkpt lat="48.31015" lon="7.04302">
        <ele>589</ele>
        <time>2016-01-11T02:37:16Z</time>
      </trkpt>
      <trkpt lat="48.31" lon="7.0429">
        <ele>587</ele>
        <time>2016-01-11T02:39:16Z</time>
      </trkpt>
      <trkpt lat="48.30985" lon="7.04271">
        <ele>589</ele>
        <time>2016-01-11T02:41:16Z</time>
      </trkpt>
      <trkpt lat="48.30976" lon="7.04258">
        <ele>589</ele>
        <time>2016-01-11T02:43:16Z</time>
      </trkpt>
      <trkpt lat="48.30965" lon="7.04245">
        <ele>588</ele>
        <time>2016-01-11T02:45:16Z</time>
      </trkpt>
      <trkpt lat="48.30955" lon="7.04238">
        <ele>586</ele>
        <time>2016-01-11T02:47:16Z</time>
      </trkpt>
      <trkpt lat="48.30946" lon="7.04242">
        <ele>585</ele>
        <time>2016-01-11T02:49:16Z</time>
      </trkpt>
      <trkpt lat="48.30937" lon="7.04256">
        <ele>584</ele>
        <time>2016-01-11T02:51:16Z</time>
      </trkpt>
      <trkpt lat="48.30928" lon="7.04274">
        <ele>583</ele>
        <time>2016-01-11T02:53:16Z</time>
      </trkpt>
      <trkpt lat="48.30915" lon="7.04297">
        <ele>584</ele>
        <time>2016-01-11T02:55:16Z</time>
      </trkpt>
      <trkpt lat="48.30907" lon="7.04323">
        <ele>586</ele>
        <time>2016-01-11T02:57:16Z</time>
      </trkpt>
      <trkpt lat="48.309" lon="7.04337">
        <ele>588</ele>
        <time>2016-01-11T02:59:16Z</time>
      </trkpt>
      <trkpt lat="48.3089" lon="7.04361">
        <ele>590</ele>
        <time>2016-01-11T03:01:16Z</time>
      </trkpt>
      <trkpt lat="48.30883" lon="7.04381">
        <ele>592</ele>
        <time>2016-01-11T03:03:16Z</time>
      </trkpt>
      <trkpt lat="48.30873" lon="7.0441">
        <ele>595</ele>
        <time>2016-01-11T03:05:16Z</time>
      </trkpt>
      <trkpt lat="48.30862" lon="7.0444">
        <ele>596</ele>
        <time>2016-01-11T03:07:16Z</time>
      </trkpt>
      <trkpt lat="48.30852" lon="7.04465">
        <ele>598</ele>
        <time>2016-01-11T03:09:16Z</time>
      </trkpt>
      <trkpt lat="48.30838" lon="7.04485">
        <ele>601</ele>
        <time>2016-01-11T03:11:16Z</time>
      </trkpt>
      <trkpt lat="48.30824" lon="7.04507">
        <ele>602</ele>
        <time>2016-01-11T03:13:16Z</time>
      </trkpt>
      <trkpt lat="48.30803" lon="7.04533">
        <ele>603</ele>
        <time>2016-01-11T03:15:16Z</time>
      </trkpt>
      <trkpt lat="48.30793" lon="7.0454">
        <ele>603</ele>
        <time>2016-01-11T03:17:16Z</time>
      </trkpt>
      <trkpt lat="48.30796" lon="7.04508">
        <ele>607</ele>
        <time>2016-01-11T03:19:16Z</time>
      </trkpt>
      <trkpt lat="48.30792" lon="7.04501">
        <ele>609</ele>
        <time>2016-01-11T03:21:16Z</time>
      </trkpt>
      <trkpt lat="48.30773" lon="7.045">
        <ele>613</ele>
        <time>2016-01-11T03:23:16Z</time>
      </trkpt>
      <trkpt lat="48.30773" lon="7.04489">
        <ele>614</ele>
        <time>2016-01-11T03:25:16Z</time>
      </trkpt>
      <trkpt lat="48.30763" lon="7.04484">
        <ele>617</ele>
        <time>2016-01-11T03:27:16Z</time>
      </trkpt>
      <trkpt lat="48.30761" lon="7.04469">
        <ele>620</ele>
        <time>2016-01-11T03:29:16Z</time>
      </trkpt>
      <trkpt lat="48.30757" lon="7.0444">
        <ele>627</ele>
        <time>2016-01-11T03:31:16Z</time>
      </trkpt>
      <trkpt lat="48.3075" lon="7.0442">
        <ele>632</ele>
        <time>2016-01-11T03:33:16Z</time>
      </trkpt>
      <trkpt lat="48.30738" lon="7.04398">
        <ele>628</ele>
        <time>2016-01-11T03:35:16Z</time>
      </trkpt>
      <trkpt lat="48.30726" lon="7.04372">
        <ele>623</ele>
        <time>2016-01-11T03:37:16Z</time>
      </trkpt>
      <trkpt lat="48.30716" lon="7.04355">
        <ele>619</ele>
        <time>2016-01-11T03:39:16Z</time>
      </trkpt>
      <trkpt lat="48.30702" lon="7.04341">
        <ele>616</ele>
        <time>2016-01-11T03:41:16Z</time>
      </trkpt>
      <trkpt lat="48.30695" lon="7.04353">
        <ele>617</ele>
        <time>2016-01-11T03:43:16Z</time>
      </trkpt>
      <trkpt lat="48.30684" lon="7.04353">
        <ele>615</ele>
        <time>2016-01-11T03:45:16Z</time>
      </trkpt>
      <trkpt lat="48.3068" lon="7.04367">
        <ele>616</ele>
        <time>2016-01-11T03:47:16Z</time>
      </trkpt>
      <trkpt lat="48.30687" lon="7.04412">
        <ele>621</ele>
        <time>2016-01-11T03:49:16Z</time>
      </trkpt>
      <trkpt lat="48.30696" lon="7.0444">
        <ele>619</ele>
        <time>2016-01-11T03:51:16Z</time>
      </trkpt>
      <trkpt lat="48.30706" lon="7.04463">
        <ele>616</ele>
        <time>2016-01-11T03:53:16Z</time>
      </trkpt>
      <trkpt lat="48.30718" lon="7.04488">
        <ele>614</ele>
        <time>2016-01-11T03:55:16Z</time>
      </trkpt>
      <trkpt lat="48.30733" lon="7.04508">
        <ele>612</ele>
        <time>2016-01-11T03:57:16Z</time>
      </trkpt>
      <trkpt lat="48.30748" lon="7.04525">
        <ele>610</ele>
        <time>2016-01-11T03:59:16Z</time>
      </trkpt>
      <trkpt lat="48.30769" lon="7.04537">
        <ele>606</ele>
        <time>2016-01-11T04:01:16Z</time>
      </trkpt>
      <trkpt lat="48.30788" lon="7.04538">
        <ele>604</ele>
        <time>2016-01-11T04:03:16Z</time>
      </trkpt>
      <trkpt lat="48.30802" lon="7.04528">
        <ele>604</ele>
        <time>2016-01-11T04:05:16Z</time>
      </trkpt>
      <trkpt lat="48.30823" lon="7.045">
        <ele>603</ele>
        <time>2016-01-11T04:07:16Z</time>
      </trkpt>
      <trkpt lat="48.30837" lon="7.04479">
        <ele>601</ele>
        <time>2016-01-11T04:09:16Z</time>
      </trkpt>
      <trkpt lat="48.30849" lon="7.04459">
        <ele>599</ele>
        <time>2016-01-11T04:11:16Z</time>
      </trkpt>
      <trkpt lat="48.30859" lon="7.04437">
        <ele>597</ele>
        <time>2016-01-11T04:13:16Z</time>
      </trkpt>
      <trkpt lat="48.3087" lon="7.04407">
        <ele>596</ele>
        <time>2016-01-11T04:15:16Z</time>
      </trkpt>
      <trkpt lat="48.30881" lon="7.04377">
        <ele>592</ele>
        <time>2016-01-11T04:17:16Z</time>
      </trkpt>
      <trkpt lat="48.30888" lon="7.04358">
        <ele>591</ele>
        <time>2016-01-11T04:19:16Z</time>
      </trkpt>
      <trkpt lat="48.30897" lon="7.04337">
        <ele>589</ele>
        <time>2016-01-11T04:21:16Z</time>
      </trkpt>
      <trkpt lat="48.30905" lon="7.04319">
        <ele>587</ele>
        <time>2016-01-11T04:23:16Z</time>
      </trkpt>
      <trkpt lat="48.30913" lon="7.04297">
        <ele>584</ele>
        <time>2016-01-11T04:25:16Z</time>
      </trkpt>
      <trkpt lat="48.30926" lon="7.0427">
        <ele>583</ele>
        <time>2016-01-11T04:27:16Z</time>
      </trkpt>
      <trkpt lat="48.30934" lon="7.04253">
        <ele>584</ele>
        <time>2016-01-11T04:29:16Z</time>
      </trkpt>
      <trkpt lat="48.30948" lon="7.04236">
        <ele>585</ele>
        <time>2016-01-11T04:31:16Z</time>
      </trkpt>
      <trkpt lat="48.30958" lon="7.04216">
        <ele>587</ele>
        <time>2016-01-11T04:33:16Z</time>
      </trkpt>
      <trkpt lat="48.30959" lon="7.04178">
        <ele>586</ele>
        <time>2016-01-11T04:35:16Z</time>
      </trkpt>
      <trkpt lat="48.30961" lon="7.04136">
        <ele>588</ele>
        <time>2016-01-11T04:37:16Z</time>
      </trkpt>
      <trkpt lat="48.30962" lon="7.04089">
        <ele>591</ele>
        <time>2016-01-11T04:39:16Z</time>
      </trkpt>
      <trkpt lat="48.30961" lon="7.04069">
        <ele>594</ele>
        <time>2016-01-11T04:41:16Z</time>
      </trkpt>
      <trkpt lat="48.30956" lon="7.04042">
        <ele>598</ele>
        <time>2016-01-11T04:43:16Z</time>
      </trkpt>
      <trkpt lat="48.30946" lon="7.04021">
        <ele>599</ele>
        <time>2016-01-11T04:45:16Z</time>
      </trkpt>
      <trkpt lat="48.30928" lon="7.0399">
        <ele>599</ele>
        <time>2016-01-11T04:47:16Z</time>
      </trkpt>
      <trkpt lat="48.30919" lon="7.03966">
        <ele>602</ele>
        <time>2016-01-11T04:49:16Z</time>
      </trkpt>
      <trkpt lat="48.30946" lon="7.03984">
        <ele>607</ele>
        <time>2016-01-11T04:51:16Z</time>
      </trkpt>
      <trkpt lat="48.30956" lon="7.04">
        <ele>607</ele>
        <time>2016-01-11T04:53:16Z</time>
      </trkpt>
      <trkpt lat="48.30969" lon="7.04025">
        <ele>606</ele>
        <time>2016-01-11T04:55:16Z</time>
      </trkpt>
      <trkpt lat="48.30981" lon="7.04044">
        <ele>606</ele>
        <time>2016-01-11T04:57:16Z</time>
      </trkpt>
      <trkpt lat="48.30991" lon="7.04072">
        <ele>604</ele>
        <time>2016-01-11T04:59:16Z</time>
      </trkpt>
      <trkpt lat="48.31" lon="7.04103">
        <ele>603</ele>
        <time>2016-01-11T05:01:16Z</time>
      </trkpt>
      <trkpt lat="48.31009" lon="7.04132">
        <ele>604</ele>
        <time>2016-01-11T05:03:16Z</time>
      </trkpt>
      <trkpt lat="48.31019" lon="7.04162">
        <ele>606</ele>
        <time>2016-01-11T05:05:16Z</time>
      </trkpt>
      <trkpt lat="48.3103" lon="7.04194">
        <ele>608</ele>
        <time>2016-01-11T05:07:16Z</time>
      </trkpt>
      <trkpt lat="48.3104" lon="7.04218">
        <ele>609</ele>
        <time>2016-01-11T05:09:16Z</time>
      </trkpt>
      <trkpt lat="48.31049" lon="7.04239">
        <ele>610</ele>
        <time>2016-01-11T05:11:16Z</time>
      </trkpt>
      <trkpt lat="48.31066" lon="7.0426">
        <ele>612</ele>
        <time>2016-01-11T05:13:16Z</time>
      </trkpt>
      <trkpt lat="48.3108" lon="7.04271">
        <ele>613</ele>
        <time>2016-01-11T05:15:16Z</time>
      </trkpt>
      <trkpt lat="48.311" lon="7.04279">
        <ele>615</ele>
        <time>2016-01-11T05:17:16Z</time>
      </trkpt>
      <trkpt lat="48.31116" lon="7.04288">
        <ele>616</ele>
        <time>2016-01-11T05:19:16Z</time>
      </trkpt>
      <trkpt lat="48.31133" lon="7.04291">
        <ele>619</ele>
        <time>2016-01-11T05:21:16Z</time>
      </trkpt>
      <trkpt lat="48.31154" lon="7.04297">
        <ele>621</ele>
        <time>2016-01-11T05:23:16Z</time>
      </trkpt>
      <trkpt lat="48.31172" lon="7.04303">
        <ele>621</ele>
        <time>2016-01-11T05:25:16Z</time>
      </trkpt>
      <trkpt lat="48.31185" lon="7.04309">
        <ele>618</ele>
        <time>2016-01-11T05:27:16Z</time>
      </trkpt>
      <trkpt lat="48.31199" lon="7.04322">
        <ele>613</ele>
        <time>2016-01-11T05:29:16Z</time>
      </trkpt>
      <trkpt lat="48.31209" lon="7.04332">
        <ele>609</ele>
        <time>2016-01-11T05:31:16Z</time>
      </trkpt>
      <trkpt lat="48.31219" lon="7.04331">
        <ele>609</ele>
        <time>2016-01-11T05:33:16Z</time>
      </trkpt>
      <trkpt lat="48.31226" lon="7.0433">
        <ele>608</ele>
        <time>2016-01-11T05:35:16Z</time>
      </trkpt>
      <trkpt lat="48.31233" lon="7.04307">
        <ele>613</ele>
        <time>2016-01-11T05:37:16Z</time>
      </trkpt>
      <trkpt lat="48.31239" lon="7.04295">
        <ele>615</ele>
        <time>2016-01-11T05:39:16Z</time>
      </trkpt>
      <trkpt lat="48.31246" lon="7.0428">
        <ele>617</ele>
        <time>2016-01-11T05:41:16Z</time>
      </trkpt>
      <trkpt lat="48.31251" lon="7.0425">
        <ele>622</ele>
        <time>2016-01-11T05:43:16Z</time>
      </trkpt>
      <trkpt lat="48.3126" lon="7.04222">
        <ele>624</ele>
        <time>2016-01-11T05:45:16Z</time>
      </trkpt>
      <trkpt lat="48.31267" lon="7.04197">
        <ele>626</ele>
        <time>2016-01-11T05:47:16Z</time>
      </trkpt>
      <trkpt lat="48.31268" lon="7.04178">
        <ele>629</ele>
        <time>2016-01-11T05:49:16Z</time>
      </trkpt>
      <trkpt lat="48.31273" lon="7.04153">
        <ele>633</ele>
        <time>2016-01-11T05:51:16Z</time>
      </trkpt>
      <trkpt lat="48.31276" lon="7.04131">
        <ele>637</ele>
        <time>2016-01-11T05:53:16Z</time>
      </trkpt>
      <trkpt lat="48.31279" lon="7.04109">
        <ele>641</ele>
        <time>2016-01-11T05:55:16Z</time>
      </trkpt>
      <trkpt lat="48.31274" lon="7.04099">
        <ele>645</ele>
        <time>2016-01-11T05:57:16Z</time>
      </trkpt>
      <trkpt lat="48.31264" lon="7.04104">
        <ele>646</ele>
        <time>2016-01-11T05:59:16Z</time>
      </trkpt>
      <trkpt lat="48.31253" lon="7.04111">
        <ele>648</ele>
        <time>2016-01-11T06:01:16Z</time>
      </trkpt>
      <trkpt lat="48.3124" lon="7.04118">
        <ele>648</ele>
        <time>2016-01-11T06:03:16Z</time>
      </trkpt>
      <trkpt lat="48.31234" lon="7.04103">
        <ele>652</ele>
        <time>2016-01-11T06:05:16Z</time>
      </trkpt>
      <trkpt lat="48.31237" lon="7.04082">
        <ele>655</ele>
        <time>2016-01-11T06:07:16Z</time>
      </trkpt>
      <trkpt lat="48.31244" lon="7.04056">
        <ele>660</ele>
        <time>2016-01-11T06:09:16Z</time>
      </trkpt>
      <trkpt lat="48.31253" lon="7.04029">
        <ele>664</ele>
        <time>2016-01-11T06:11:16Z</time>
      </trkpt>
      <trkpt lat="48.31252" lon="7.04017">
        <ele>667</ele>
        <time>2016-01-11T06:13:16Z</time>
      </trkpt>
      <trkpt lat="48.31241" lon="7.04013">
        <ele>668</ele>
        <time>2016-01-11T06:15:16Z</time>
      </trkpt>
      <trkpt lat="48.31226" lon="7.04017">
        <ele>668</ele>
        <time>2016-01-11T06:17:16Z</time>
      </trkpt>
      <trkpt lat="48.31203" lon="7.04026">
        <ele>667</ele>
        <time>2016-01-11T06:19:16Z</time>
      </trkpt>
      <trkpt lat="48.31182" lon="7.04026">
        <ele>668</ele>
        <time>2016-01-11T06:21:16Z</time>
      </trkpt>
      <trkpt lat="48.31172" lon="7.04008">
        <ele>672</ele>
        <time>2016-01-11T06:23:16Z</time>
      </trkpt>
      <trkpt lat="48.3116" lon="7.03984">
        <ele>674</ele>
        <time>2016-01-11T06:25:16Z</time>
      </trkpt>
      <trkpt lat="48.31152" lon="7.03947">
        <ele>679</ele>
        <time>2016-01-11T06:27:16Z</time>
      </trkpt>
      <trkpt lat="48.31146" lon="7.03931">
        <ele>681</ele>
        <time>2016-01-11T06:29:16Z</time>
      </trkpt>
      <trkpt lat="48.31137" lon="7.03923">
        <ele>680</ele>
        <time>2016-01-11T06:31:16Z</time>
      </trkpt>
      <trkpt lat="48.31125" lon="7.03919">
        <ele>679</ele>
        <time>2016-01-11T06:33:16Z</time>
      </trkpt>
      <trkpt lat="48.3112" lon="7.03907">
        <ele>680</ele>
        <time>2016-01-11T06:35:16Z</time>
      </trkpt>
      <trkpt lat="48.31114" lon="7.03883">
        <ele>684</ele>
        <time>2016-01-11T06:37:16Z</time>
      </trkpt>
      <trkpt lat="48.31113" lon="7.03861">
        <ele>689</ele>
        <time>2016-01-11T06:39:16Z</time>
      </trkpt>
      <trkpt lat="48.31108" lon="7.03852">
        <ele>689</ele>
        <time>2016-01-11T06:41:16Z</time>
      </trkpt>
      <trkpt lat="48.31102" lon="7.03837">
        <ele>691</ele>
        <time>2016-01-11T06:43:16Z</time>
      </trkpt>
      <trkpt lat="48.31097" lon="7.03821">
        <ele>693</ele>
        <time>2016-01-11T06:45:16Z</time>
      </trkpt>
      <trkpt lat="48.31088" lon="7.03807">
        <ele>694</ele>
        <time>2016-01-11T06:47:16Z</time>
      </trkpt>
      <trkpt lat="48.31076" lon="7.03788">
        <ele>695</ele>
        <time>2016-01-11T06:49:16Z</time>
      </trkpt>
      <trkpt lat="48.31065" lon="7.03766">
        <ele>696</ele>
        <time>2016-01-11T06:51:16Z</time>
      </trkpt>
      <trkpt lat="48.31055" lon="7.03742">
        <ele>697</ele>
        <time>2016-01-11T06:53:16Z</time>
      </trkpt>
      <trkpt lat="48.31051" lon="7.03722">
        <ele>701</ele>
        <time>2016-01-11T06:55:16Z</time>
      </trkpt>
      <trkpt lat="48.31045" lon="7.03706">
        <ele>703</ele>
        <time>2016-01-11T06:57:16Z</time>
      </trkpt>
      <trkpt lat="48.31035" lon="7.03683">
        <ele>704</ele>
        <time>2016-01-11T06:59:16Z</time>
      </trkpt>
      <trkpt lat="48.31025" lon="7.0366">
        <ele>706</ele>
        <time>2016-01-11T07:01:16Z</time>
      </trkpt>
      <trkpt lat="48.3102" lon="7.03639">
        <ele>709</ele>
        <time>2016-01-11T07:03:16Z</time>
      </trkpt>
      <trkpt lat="48.31012" lon="7.03614">
        <ele>711</ele>
        <time>2016-01-11T07:05:16Z</time>
      </trkpt>
      <trkpt lat="48.31004" lon="7.03585">
        <ele>714</ele>
        <time>2016-01-11T07:07:16Z</time>
      </trkpt>
      <trkpt lat="48.30995" lon="7.03552">
        <ele>716</ele>
        <time>2016-01-11T07:09:16Z</time>
      </trkpt>
      <trkpt lat="48.30988" lon="7.03527">
        <ele>716</ele>
        <time>2016-01-11T07:11:16Z</time>
      </trkpt>
      <trkpt lat="48.30985" lon="7.035">
        <ele>719</ele>
        <time>2016-01-11T07:13:16Z</time>
      </trkpt>
      <trkpt lat="48.30979" lon="7.03472">
        <ele>721</ele>
        <time>2016-01-11T07:15:16Z</time>
      </trkpt>
      <trkpt lat="48.3098" lon="7.03454">
        <ele>725</ele>
        <time>2016-01-11T07:17:16Z</time>
      </trkpt>
      <trkpt lat="48.30986" lon="7.03428">
        <ele>734</ele>
        <time>2016-01-11T07:19:16Z</time>
      </trkpt>
      <trkpt lat="48.30985" lon="7.03417">
        <ele>735</ele>
        <time>2016-01-11T07:21:16Z</time>
      </trkpt>
      <trkpt lat="48.30981" lon="7.03406">
        <ele>735</ele>
        <time>2016-01-11T07:23:16Z</time>
      </trkpt>
      <trkpt lat="48.30977" lon="7.03383">
        <ele>737</ele>
        <time>2016-01-11T07:25:16Z</time>
      </trkpt>
      <trkpt lat="48.30973" lon="7.03363">
        <ele>738</ele>
        <time>2016-01-11T07:27:16Z</time>
      </trkpt>
      <trkpt lat="48.30969" lon="7.03335">
        <ele>741</ele>
        <time>2016-01-11T07:29:16Z</time>
      </trkpt>
      <trkpt lat="48.30965" lon="7.03317">
        <ele>742</ele>
        <time>2016-01-11T07:31:16Z</time>
      </trkpt>
      <trkpt lat="48.30961" lon="7.03294">
        <ele>745</ele>
        <time>2016-01-11T07:33:16Z</time>
      </trkpt>
      <trkpt lat="48.30952" lon="7.03266">
        <ele>746</ele>
        <time>2016-01-11T07:35:16Z</time>
      </trkpt>
      <trkpt lat="48.30939" lon="7.03223">
        <ele>751</ele>
        <time>2016-01-11T07:37:16Z</time>
      </trkpt>
      <trkpt lat="48.30928" lon="7.03191">
        <ele>756</ele>
        <time>2016-01-11T07:39:16Z</time>
      </trkpt>
      <trkpt lat="48.30916" lon="7.03165">
        <ele>758</ele>
        <time>2016-01-11T07:41:16Z</time>
      </trkpt>
      <trkpt lat="48.30904" lon="7.03135">
        <ele>763</ele>
        <time>2016-01-11T07:43:16Z</time>
      </trkpt>
      <trkpt lat="48.30898" lon="7.03119">
        <ele>766</ele>
        <time>2016-01-11T07:45:16Z</time>
      </trkpt>
      <trkpt lat="48.30897" lon="7.03102">
        <ele>771</ele>
        <time>2016-01-11T07:47:16Z</time>
      </trkpt>
      <trkpt lat="48.30884" lon="7.03091">
        <ele>771</ele>
        <time>2016-01-11T07:49:16Z</time>
      </trkpt>
      <trkpt lat="48.30874" lon="7.0307">
        <ele>775</ele>
        <time>2016-01-11T07:51:16Z</time>
      </trkpt>
      <trkpt lat="48.30864" lon="7.0305">
        <ele>780</ele>
        <time>2016-01-11T07:53:16Z</time>
      </trkpt>
      <trkpt lat="48.30854" lon="7.03032">
        <ele>783</ele>
        <time>2016-01-11T07:55:16Z</time>
      </trkpt>
      <trkpt lat="48.30847" lon="7.03018">
        <ele>786</ele>
        <time>2016-01-11T07:57:16Z</time>
      </trkpt>
      <trkpt lat="48.30839" lon="7.03009">
        <ele>787</ele>
        <time>2016-01-11T07:59:16Z</time>
      </trkpt>
      <trkpt lat="48.30829" lon="7.03">
        <ele>789</ele>
        <time>2016-01-11T08:01:16Z</time>
      </trkpt>
      <trkpt lat="48.30817" lon="7.02998">
        <ele>788</ele>
        <time>2016-01-11T08:03:16Z</time>
      </trkpt>
      <trkpt lat="48.30797" lon="7.02994">
        <ele>788</ele>
        <time>2016-01-11T08:05:16Z</time>
      </trkpt>
      <trkpt lat="48.30778" lon="7.02989">
        <ele>788</ele>
        <time>2016-01-11T08:07:16Z</time>
      </trkpt>
      <trkpt lat="48.30764" lon="7.02987">
        <ele>787</ele>
        <time>2016-01-11T08:09:16Z</time>
      </trkpt>
      <trkpt lat="48.30752" lon="7.02979">
        <ele>789</ele>
        <time>2016-01-11T08:11:16Z</time>
      </trkpt>
      <trkpt lat="48.30741" lon="7.02966">
        <ele>790</ele>
        <time>2016-01-11T08:13:16Z</time>
      </trkpt>
      <trkpt lat="48.30729" lon="7.02951">
        <ele>791</ele>
        <time>2016-01-11T08:15:16Z</time>
      </trkpt>
      <trkpt lat="48.30723" lon="7.02934">
        <ele>795</ele>
        <time>2016-01-11T08:17:16Z</time>
      </trkpt>
      <trkpt lat="48.30712" lon="7.02909">
        <ele>799</ele>
        <time>2016-01-11T08:19:16Z</time>
      </trkpt>
      <trkpt lat="48.30702" lon="7.02884">
        <ele>801</ele>
        <time>2016-01-11T08:21:16Z</time>
      </trkpt>
      <trkpt lat="48.30693" lon="7.02858">
        <ele>804</ele>
        <time>2016-01-11T08:23:16Z</time>
      </trkpt>
      <trkpt lat="48.30685" lon="7.02831">
        <ele>807</ele>
        <time>2016-01-11T08:25:16Z</time>
      </trkpt>
      <trkpt lat="48.30679" lon="7.02807">
        <ele>809</ele>
        <time>2016-01-11T08:27:16Z</time>
      </trkpt>
      <trkpt lat="48.30672" lon="7.02784">
        <ele>810</ele>
        <time>2016-01-11T08:29:16Z</time>
      </trkpt>
      <trkpt lat="48.30666" lon="7.02759">
        <ele>812</ele>
        <time>2016-01-11T08:31:16Z</time>
      </trkpt>
      <trkpt lat="48.30664" lon="7.02736">
        <ele>814</ele>
        <time>2016-01-11T08:33:16Z</time>
      </trkpt>
      <trkpt lat="48.30661" lon="7.02709">
        <ele>814</ele>
        <time>2016-01-11T08:35:16Z</time>
      </trkpt>
      <trkpt lat="48.30657" lon="7.0269">
        <ele>814</ele>
        <time>2016-01-11T08:37:16Z</time>
      </trkpt>
      <trkpt lat="48.30648" lon="7.0267">
        <ele>812</ele>
        <time>2016-01-11T08:39:16Z</time>
      </trkpt>
      <trkpt lat="48.30637" lon="7.0265">
        <ele>807</ele>
        <time>2016-01-11T08:41:16Z</time>
      </trkpt>
      <trkpt lat="48.30635" lon="7.02637">
        <ele>806</ele>
        <time>2016-01-11T08:43:16Z</time>
      </trkpt>
      <trkpt lat="48.30634" lon="7.02622">
        <ele>805</ele>
        <time>2016-01-11T08:45:16Z</time>
      </trkpt>
      <trkpt lat="48.30651" lon="7.02643">
        <ele>812</ele>
        <time>2016-01-11T08:47:16Z</time>
      </trkpt>
      <trkpt lat="48.30665" lon="7.02659">
        <ele>819</ele>
        <time>2016-01-11T08:49:16Z</time>
      </trkpt>
      <trkpt lat="48.30678" lon="7.02673">
        <ele>821</ele>
        <time>2016-01-11T08:51:16Z</time>
      </trkpt>
      <trkpt lat="48.3069" lon="7.02688">
        <ele>822</ele>
        <time>2016-01-11T08:53:16Z</time>
      </trkpt>
      <trkpt lat="48.30703" lon="7.02711">
        <ele>825</ele>
        <time>2016-01-11T08:55:16Z</time>
      </trkpt>
      <trkpt lat="48.30714" lon="7.02729">
        <ele>828</ele>
        <time>2016-01-11T08:57:16Z</time>
      </trkpt>
      <trkpt lat="48.30722" lon="7.0274">
        <ele>831</ele>
        <time>2016-01-11T08:59:16Z</time>
      </trkpt>
      <trkpt lat="48.30734" lon="7.02758">
        <ele>834</ele>
        <time>2016-01-11T09:01:16Z</time>
      </trkpt>
      <trkpt lat="48.30751" lon="7.02784">
        <ele>838</ele>
        <time>2016-01-11T09:03:16Z</time>
      </trkpt>
      <trkpt lat="48.30769" lon="7.02807">
        <ele>839</ele>
        <time>2016-01-11T09:05:16Z</time>
      </trkpt>
      <trkpt lat="48.30784" lon="7.02821">
        <ele>840</ele>
        <time>2016-01-11T09:07:16Z</time>
      </trkpt>
      <trkpt lat="48.30801" lon="7.02829">
        <ele>842</ele>
        <time>2016-01-11T09:09:16Z</time>
      </trkpt>
      <trkpt lat="48.30816" lon="7.02828">
        <ele>844</ele>
        <time>2016-01-11T09:11:16Z</time>
      </trkpt>
      <trkpt lat="48.30826" lon="7.02822">
        <ele>846</ele>
        <time>2016-01-11T09:13:16Z</time>
      </trkpt>
      <trkpt lat="48.30844" lon="7.02817">
        <ele>846</ele>
        <time>2016-01-11T09:15:16Z</time>
      </trkpt>
      <trkpt lat="48.30854" lon="7.02822">
        <ele>847</ele>
        <time>2016-01-11T09:17:16Z</time>
      </trkpt>
      <trkpt lat="48.30868" lon="7.02828">
        <ele>847</ele>
        <time>2016-01-11T09:19:16Z</time>
      </trkpt>
      <trkpt lat="48.30883" lon="7.02824">
        <ele>847</ele>
        <time>2016-01-11T09:21:16Z</time>
      </trkpt>
      <trkpt lat="48.30898" lon="7.0283">
        <ele>848</ele>
        <time>2016-01-11T09:23:16Z</time>
      </trkpt>
      <trkpt lat="48.30916" lon="7.02833">
        <ele>849</ele>
        <time>2016-01-11T09:25:16Z</time>
      </trkpt>
      <trkpt lat="48.30927" lon="7.02841">
        <ele>847</ele>
        <time>2016-01-11T09:27:16Z</time>
      </trkpt>
      <trkpt lat="48.30938" lon="7.02854">
        <ele>846</ele>
        <time>2016-01-11T09:29:16Z</time>
      </trkpt>
      <trkpt lat="48.30943" lon="7.02872">
        <ele>844</ele>
        <time>2016-01-11T09:31:16Z</time>
      </trkpt>
      <trkpt lat="48.30961" lon="7.02885">
        <ele>845</ele>
        <time>2016-01-11T09:33:16Z</time>
      </trkpt>
      <trkpt lat="48.30975" lon="7.02902">
        <ele>846</ele>
        <time>2016-01-11T09:35:16Z</time>
      </trkpt>
      <trkpt lat="48.30992" lon="7.02921">
        <ele>847</ele>
        <time>2016-01-11T09:37:16Z</time>
      </trkpt>
      <trkpt lat="48.31009" lon="7.02947">
        <ele>846</ele>
        <time>2016-01-11T09:39:16Z</time>
      </trkpt>
      <trkpt lat="48.31021" lon="7.02962">
        <ele>845</ele>
        <time>2016-01-11T09:41:16Z</time>
      </trkpt>
      <trkpt lat="48.31037" lon="7.02983">
        <ele>846</ele>
        <time>2016-01-11T09:43:16Z</time>
      </trkpt>
      <trkpt lat="48.31053" lon="7.03">
        <ele>849</ele>
        <time>2016-01-11T09:45:16Z</time>
      </trkpt>
      <trkpt lat="48.31064" lon="7.03014">
        <ele>849</ele>
        <time>2016-01-11T09:47:16Z</time>
      </trkpt>
      <trkpt lat="48.31073" lon="7.03036">
        <ele>850</ele>
        <time>2016-01-11T09:49:16Z</time>
      </trkpt>
      <trkpt lat="48.3108" lon="7.03053">
        <ele>852</ele>
        <time>2016-01-11T09:51:16Z</time>
      </trkpt>
      <trkpt lat="48.31092" lon="7.03068">
        <ele>853</ele>
        <time>2016-01-11T09:53:16Z</time>
      </trkpt>
      <trkpt lat="48.31102" lon="7.03095">
        <ele>853</ele>
        <time>2016-01-11T09:55:16Z</time>
      </trkpt>
      <trkpt lat="48.31115" lon="7.03126">
        <ele>852</ele>
        <time>2016-01-11T09:57:16Z</time>
      </trkpt>
      <trkpt lat="48.31125" lon="7.03154">
        <ele>853</ele>
        <time>2016-01-11T09:59:16Z</time>
      </trkpt>
      <trkpt lat="48.31132" lon="7.03176">
        <ele>853</ele>
        <time>2016-01-11T10:01:16Z</time>
      </trkpt>
      <trkpt lat="48.31145" lon="7.03205">
        <ele>855</ele>
        <time>2016-01-11T10:03:16Z</time>
      </trkpt>
      <trkpt lat="48.31158" lon="7.03231">
        <ele>857</ele>
        <time>2016-01-11T10:05:16Z</time>
      </trkpt>
      <trkpt lat="48.31171" lon="7.03256">
        <ele>860</ele>
        <time>2016-01-11T10:07:16Z</time>
      </trkpt>
      <trkpt lat="48.31184" lon="7.03273">
        <ele>859</ele>
        <time>2016-01-11T10:09:16Z</time>
      </trkpt>
      <trkpt lat="48.31199" lon="7.0329">
        <ele>860</ele>
        <time>2016-01-11T10:11:16Z</time>
      </trkpt>
      <trkpt lat="48.31214" lon="7.03295">
        <ele>863</ele>
        <time>2016-01-11T10:13:16Z</time>
      </trkpt>
      <trkpt lat="48.31234" lon="7.033">
        <ele>868</ele>
        <time>2016-01-11T10:15:16Z</time>
      </trkpt>
      <trkpt lat="48.3125" lon="7.033">
        <ele>873</ele>
        <time>2016-01-11T10:17:16Z</time>
      </trkpt>
      <trkpt lat="48.31263" lon="7.03301">
        <ele>873</ele>
        <time>2016-01-11T10:19:16Z</time>
      </trkpt>
      <trkpt lat="48.31283" lon="7.03299">
        <ele>872</ele>
        <time>2016-01-11T10:21:16Z</time>
      </trkpt>
      <trkpt lat="48.31303" lon="7.03291">
        <ele>872</ele>
        <time>2016-01-11T10:23:16Z</time>
      </trkpt>
      <trkpt lat="48.31324" lon="7.03283">
        <ele>871</ele>
        <time>2016-01-11T10:25:16Z</time>
      </trkpt>
      <trkpt lat="48.3134" lon="7.03279">
        <ele>869</ele>
        <time>2016-01-11T10:27:16Z</time>
      </trkpt>
      <trkpt lat="48.31354" lon="7.03266">
        <ele>867</ele>
        <time>2016-01-11T10:29:16Z</time>
      </trkpt>
      <trkpt lat="48.3136" lon="7.03254">
        <ele>866</ele>
        <time>2016-01-11T10:31:16Z</time>
      </trkpt>
      <trkpt lat="48.3137" lon="7.03222">
        <ele>863</ele>
        <time>2016-01-11T10:33:16Z</time>
      </trkpt>
      <trkpt lat="48.3138" lon="7.03188">
        <ele>860</ele>
        <time>2016-01-11T10:35:16Z</time>
      </trkpt>
      <trkpt lat="48.31387" lon="7.0316">
        <ele>857</ele>
        <time>2016-01-11T10:37:16Z</time>
      </trkpt>
      <trkpt lat="48.31392" lon="7.03126">
        <ele>853</ele>
        <time>2016-01-11T10:39:16Z</time>
      </trkpt>
      <trkpt lat="48.31396" lon="7.03103">
        <ele>850</ele>
        <time>2016-01-11T10:41:16Z</time>
      </trkpt>
      <trkpt lat="48.31401" lon="7.03074">
        <ele>846</ele>
        <time>2016-01-11T10:43:16Z</time>
      </trkpt>
      <trkpt lat="48.31404" lon="7.03047">
        <ele>843</ele>
        <time>2016-01-11T10:45:16Z</time>
      </trkpt>
      <trkpt lat="48.31407" lon="7.0302">
        <ele>841</ele>
        <time>2016-01-11T10:47:16Z</time>
      </trkpt>
      <trkpt lat="48.31409" lon="7.02989">
        <ele>839</ele>
        <time>2016-01-11T10:49:16Z</time>
      </trkpt>
      <trkpt lat="48.31418" lon="7.02985">
        <ele>837</ele>
        <time>2016-01-11T10:51:16Z</time>
      </trkpt>
      <trkpt lat="48.31426" lon="7.02971">
        <ele>833</ele>
        <time>2016-01-11T10:53:16Z</time>
      </trkpt>
      <trkpt lat="48.31428" lon="7.02948">
        <ele>833</ele>
        <time>2016-01-11T10:55:16Z</time>
      </trkpt>
      <trkpt lat="48.31434" lon="7.0293">
        <ele>830</ele>
        <time>2016-01-11T10:57:16Z</time>
      </trkpt>
      <trkpt lat="48.31439" lon="7.02906">
        <ele>828</ele>
        <time>2016-01-11T10:59:16Z</time>
      </trkpt>
      <trkpt lat="48.31443" lon="7.02883">
        <ele>827</ele>
        <time>2016-01-11T11:01:16Z</time>
      </trkpt>
      <trkpt lat="48.31449" lon="7.02867">
        <ele>825</ele>
        <time>2016-01-11T11:03:16Z</time>
      </trkpt>
      <trkpt lat="48.31451" lon="7.02853">
        <ele>824</ele>
        <time>2016-01-11T11:05:16Z</time>
      </trkpt>
      <trkpt lat="48.31447" lon="7.02845">
        <ele>826</ele>
        <time>2016-01-11T11:07:16Z</time>
      </trkpt>
      <trkpt lat="48.3145" lon="7.02804">
        <ele>827</ele>
        <time>2016-01-11T11:09:16Z</time>
      </trkpt>
      <trkpt lat="48.31458" lon="7.0276">
        <ele>825</ele>
        <time>2016-01-11T11:11:16Z</time>
      </trkpt>
      <trkpt lat="48.31467" lon="7.02713">
        <ele>822</ele>
        <time>2016-01-11T11:13:16Z</time>
      </trkpt>
      <trkpt lat="48.31475" lon="7.02675">
        <ele>819</ele>
        <time>2016-01-11T11:15:16Z</time>
      </trkpt>
      <trkpt lat="48.31486" lon="7.02633">
        <ele>813</ele>
        <time>2016-01-11T11:17:16Z</time>
      </trkpt>
      <trkpt lat="48.31492" lon="7.02602">
        <ele>810</ele>
        <time>2016-01-11T11:19:16Z</time>
      </trkpt>
      <trkpt lat="48.315" lon="7.02567">
        <ele>807</ele>
        <time>2016-01-11T11:21:16Z</time>
      </trkpt>
      <trkpt lat="48.31504" lon="7.02538">
        <ele>804</ele>
        <time>2016-01-11T11:23:16Z</time>
      </trkpt>
      <trkpt lat="48.31508" lon="7.02498">
        <ele>802</ele>
        <time>2016-01-11T11:25:16Z</time>
      </trkpt>
      <trkpt lat="48.31513" lon="7.02457">
        <ele>801</ele>
        <time>2016-01-11T11:27:16Z</time>
      </trkpt>
      <trkpt lat="48.31522" lon="7.02418">
        <ele>800</ele>
        <time>2016-01-11T11:29:16Z</time>
      </trkpt>
      <trkpt lat="48.3153" lon="7.02382">
        <ele>798</ele>
        <time>2016-01-11T11:31:16Z</time>
      </trkpt>
      <trkpt lat="48.31537" lon="7.02361">
        <ele>797</ele>
        <time>2016-01-11T11:33:16Z</time>
      </trkpt>
      <trkpt lat="48.31547" lon="7.02345">
        <ele>795</ele>
        <time>2016-01-11T11:35:16Z</time>
      </trkpt>
      <trkpt lat="48.31555" lon="7.02326">
        <ele>794</ele>
        <time>2016-01-11T11:37:16Z</time>
      </trkpt>
      <trkpt lat="48.31568" lon="7.02301">
        <ele>793</ele>
        <time>2016-01-11T11:39:16Z</time>
      </trkpt>
      <trkpt lat="48.3158" lon="7.0228">
        <ele>792</ele>
        <time>2016-01-11T11:41:16Z</time>
      </trkpt>
      <trkpt lat="48.31595" lon="7.02249">
        <ele>788</ele>
        <time>2016-01-11T11:43:16Z</time>
      </trkpt>
      <trkpt lat="48.31614" lon="7.02211">
        <ele>784</ele>
        <time>2016-01-11T11:45:16Z</time>
      </trkpt>
      <trkpt lat="48.31626" lon="7.02183">
        <ele>782</ele>
        <time>2016-01-11T11:47:16Z</time>
      </trkpt>
      <trkpt lat="48.31643" lon="7.02149">
        <ele>778</ele>
        <time>2016-01-11T11:49:16Z</time>
      </trkpt>
      <trkpt lat="48.31658" lon="7.0212">
        <ele>774</ele>
        <time>2016-01-11T11:51:16Z</time>
      </trkpt>
      <trkpt lat="48.31672" lon="7.02089">
        <ele>769</ele>
        <time>2016-01-11T11:53:16Z</time>
      </trkpt>
      <trkpt lat="48.31691" lon="7.0205">
        <ele>763</ele>
        <time>2016-01-11T11:55:16Z</time>
      </trkpt>
      <trkpt lat="48.31704" lon="7.02023">
        <ele>758</ele>
        <time>2016-01-11T11:57:16Z</time>
      </trkpt>
      <trkpt lat="48.31718" lon="7.01993">
        <ele>752</ele>
        <time>2016-01-11T11:59:16Z</time>
      </trkpt>
      <trkpt lat="48.31731" lon="7.01966">
        <ele>747</ele>
        <time>2016-01-11T12:01:16Z</time>
      </trkpt>
      <trkpt lat="48.31758" lon="7.01914">
        <ele>738</ele>
        <time>2016-01-11T12:03:16Z</time>
      </trkpt>
      <trkpt lat="48.31776" lon="7.01875">
        <ele>729</ele>
        <time>2016-01-11T12:05:16Z</time>
      </trkpt>
      <trkpt lat="48.31793" lon="7.01838">
        <ele>721</ele>
        <time>2016-01-11T12:07:16Z</time>
      </trkpt>
      <trkpt lat="48.31798" lon="7.01878">
        <ele>716</ele>
        <time>2016-01-11T12:09:16Z</time>
      </trkpt>
      <trkpt lat="48.31801" lon="7.01924">
        <ele>710</ele>
        <time>2016-01-11T12:11:16Z</time>
      </trkpt>
      <trkpt lat="48.31804" lon="7.01981">
        <ele>702</ele>
        <time>2016-01-11T12:13:16Z</time>
      </trkpt>
      <trkpt lat="48.31805" lon="7.0203">
        <ele>698</ele>
        <time>2016-01-11T12:15:16Z</time>
      </trkpt>
      <trkpt lat="48.31804" lon="7.02085">
        <ele>695</ele>
        <time>2016-01-11T12:17:16Z</time>
      </trkpt>
      <trkpt lat="48.31803" lon="7.02129">
        <ele>693</ele>
        <time>2016-01-11T12:19:16Z</time>
      </trkpt>
      <trkpt lat="48.31797" lon="7.02187">
        <ele>692</ele>
        <time>2016-01-11T12:21:16Z</time>
      </trkpt>
      <trkpt lat="48.31796" lon="7.02219">
        <ele>690</ele>
        <time>2016-01-11T12:23:16Z</time>
      </trkpt>
      <trkpt lat="48.31799" lon="7.02262">
        <ele>685</ele>
        <time>2016-01-11T12:25:16Z</time>
      </trkpt>
      <trkpt lat="48.31802" lon="7.02278">
        <ele>683</ele>
        <time>2016-01-11T12:27:16Z</time>
      </trkpt>
      <trkpt lat="48.31802" lon="7.02304">
        <ele>681</ele>
        <time>2016-01-11T12:29:16Z</time>
      </trkpt>
      <trkpt lat="48.318" lon="7.02343">
        <ele>679</ele>
        <time>2016-01-11T12:31:16Z</time>
      </trkpt>
      <trkpt lat="48.31796" lon="7.02379">
        <ele>678</ele>
        <time>2016-01-11T12:33:16Z</time>
      </trkpt>
      <trkpt lat="48.31796" lon="7.02406">
        <ele>676</ele>
        <time>2016-01-11T12:35:16Z</time>
      </trkpt>
      <trkpt lat="48.31797" lon="7.02446">
        <ele>674</ele>
        <time>2016-01-11T12:37:16Z</time>
      </trkpt>
      <trkpt lat="48.31801" lon="7.02485">
        <ele>671</ele>
        <time>2016-01-11T12:39:16Z</time>
      </trkpt>
      <trkpt lat="48.31805" lon="7.02534">
        <ele>668</ele>
        <time>2016-01-11T12:41:16Z</time>
      </trkpt>
      <trkpt lat="48.31809" lon="7.0257">
        <ele>666</ele>
        <time>2016-01-11T12:43:16Z</time>
      </trkpt>
      <trkpt lat="48.31813" lon="7.0261">
        <ele>663</ele>
        <time>2016-01-11T12:45:16Z</time>
      </trkpt>
      <trkpt lat="48.31818" lon="7.02639">
        <ele>661</ele>
        <time>2016-01-11T12:47:16Z</time>
      </trkpt>
      <trkpt lat="48.31822" lon="7.02665">
        <ele>659</ele>
        <time>2016-01-11T12:49:16Z</time>
      </trkpt>
      <trkpt lat="48.31824" lon="7.02697">
        <ele>658</ele>
        <time>2016-01-11T12:51:16Z</time>
      </trkpt>
      <trkpt lat="48.31826" lon="7.02727">
        <ele>657</ele>
        <time>2016-01-11T12:53:16Z</time>
      </trkpt>
      <trkpt lat="48.31822" lon="7.02746">
        <ele>658</ele>
        <time>2016-01-11T12:55:16Z</time>
      </trkpt>
      <trkpt lat="48.31822" lon="7.02782">
        <ele>656</ele>
        <time>2016-01-11T12:57:16Z</time>
      </trkpt>
      <trkpt lat="48.31824" lon="7.02822">
        <ele>654</ele>
        <time>2016-01-11T12:59:16Z</time>
      </trkpt>
      <trkpt lat="48.31828" lon="7.02872">
        <ele>649</ele>
        <time>2016-01-11T13:01:16Z</time>
      </trkpt>
      <trkpt lat="48.31837" lon="7.02883">
        <ele>645</ele>
        <time>2016-01-11T13:03:16Z</time>
      </trkpt>
      <trkpt lat="48.3184" lon="7.02897">
        <ele>644</ele>
        <time>2016-01-11T13:05:16Z</time>
      </trkpt>
      <trkpt lat="48.3184" lon="7.0292">
        <ele>642</ele>
        <time>2016-01-11T13:07:16Z</time>
      </trkpt>
      <trkpt lat="48.31837" lon="7.02939">
        <ele>643</ele>
        <time>2016-01-11T13:09:16Z</time>
      </trkpt>
      <trkpt lat="48.31832" lon="7.0296">
        <ele>645</ele>
        <time>2016-01-11T13:11:16Z</time>
      </trkpt>
      <trkpt lat="48.3183" lon="7.0298">
        <ele>646</ele>
        <time>2016-01-11T13:13:16Z</time>
      </trkpt>
      <trkpt lat="48.31832" lon="7.03002">
        <ele>646</ele>
        <time>2016-01-11T13:15:16Z</time>
      </trkpt>
      <trkpt lat="48.31834" lon="7.03028">
        <ele>648</ele>
        <time>2016-01-11T13:17:16Z</time>
      </trkpt>
      <trkpt lat="48.31837" lon="7.03057">
        <ele>650</ele>
        <time>2016-01-11T13:19:16Z</time>
      </trkpt>
      <trkpt lat="48.31834" lon="7.03086">
        <ele>653</ele>
        <time>2016-01-11T13:21:16Z</time>
      </trkpt>
      <trkpt lat="48.31844" lon="7.03109">
        <ele>651</ele>
        <time>2016-01-11T13:23:16Z</time>
      </trkpt>
      <trkpt lat="48.31855" lon="7.0313">
        <ele>649</ele>
        <time>2016-01-11T13:25:16Z</time>
      </trkpt>
      <trkpt lat="48.31867" lon="7.03148">
        <ele>646</ele>
        <time>2016-01-11T13:27:16Z</time>
      </trkpt>
      <trkpt lat="48.31879" lon="7.03169">
        <ele>644</ele>
        <time>2016-01-11T13:29:16Z</time>
      </trkpt>
      <trkpt lat="48.31893" lon="7.03181">
        <ele>640</ele>
        <time>2016-01-11T13:31:16Z</time>
      </trkpt>
      <trkpt lat="48.31909" lon="7.03182">
        <ele>636</ele>
        <time>2016-01-11T13:33:16Z</time>
      </trkpt>
      <trkpt lat="48.31923" lon="7.03176">
        <ele>633</ele>
        <time>2016-01-11T13:35:16Z</time>
      </trkpt>
      <trkpt lat="48.31938" lon="7.0317">
        <ele>631</ele>
        <time>2016-01-11T13:37:16Z</time>
      </trkpt>
      <trkpt lat="48.31954" lon="7.03169">
        <ele>629</ele>
        <time>2016-01-11T13:39:16Z</time>
      </trkpt>
      <trkpt lat="48.31966" lon="7.03181">
        <ele>627</ele>
        <time>2016-01-11T13:41:16Z</time>
      </trkpt>
      <trkpt lat="48.31979" lon="7.03194">
        <ele>624</ele>
        <time>2016-01-11T13:43:16Z</time>
      </trkpt>
      <trkpt lat="48.31996" lon="7.03206">
        <ele>620</ele>
        <time>2016-01-11T13:45:16Z</time>
      </trkpt>
      <trkpt lat="48.32011" lon="7.03216">
        <ele>618</ele>
        <time>2016-01-11T13:47:16Z</time>
      </trkpt>
      <trkpt lat="48.32027" lon="7.03217">
        <ele>616</ele>
        <time>2016-01-11T13:49:16Z</time>
      </trkpt>
      <trkpt lat="48.32022" lon="7.03238">
        <ele>615</ele>
        <time>2016-01-11T13:51:16Z</time>
      </trkpt>
      <trkpt lat="48.32018" lon="7.03269">
        <ele>614</ele>
        <time>2016-01-11T13:53:16Z</time>
      </trkpt>
      <trkpt lat="48.32009" lon="7.03314">
        <ele>612</ele>
        <time>2016-01-11T13:55:16Z</time>
      </trkpt>
      <trkpt lat="48.32002" lon="7.0335">
        <ele>612</ele>
        <time>2016-01-11T13:57:16Z</time>
      </trkpt>
      <trkpt lat="48.31995" lon="7.03399">
        <ele>616</ele>
        <time>2016-01-11T13:59:16Z</time>
      </trkpt>
      <trkpt lat="48.31985" lon="7.03433">
        <ele>619</ele>
        <time>2016-01-11T14:01:16Z</time>
      </trkpt>
      <trkpt lat="48.31969" lon="7.03473">
        <ele>622</ele>
        <time>2016-01-11T14:03:16Z</time>
      </trkpt>
      <trkpt lat="48.31958" lon="7.03513">
        <ele>624</ele>
        <time>2016-01-11T14:05:16Z</time>
      </trkpt>
      <trkpt lat="48.31944" lon="7.03556">
        <ele>624</ele>
        <time>2016-01-11T14:07:16Z</time>
      </trkpt>
      <trkpt lat="48.31933" lon="7.03594">
        <ele>624</ele>
        <time>2016-01-11T14:09:16Z</time>
      </trkpt>
      <trkpt lat="48.31924" lon="7.0362">
        <ele>624</ele>
        <time>2016-01-11T14:11:16Z</time>
      </trkpt>
      <trkpt lat="48.3191" lon="7.03659">
        <ele>625</ele>
        <time>2016-01-11T14:13:16Z</time>
      </trkpt>
      <trkpt lat="48.319" lon="7.03689">
        <ele>626</ele>
        <time>2016-01-11T14:15:16Z</time>
      </trkpt>
      <trkpt lat="48.31892" lon="7.03709">
        <ele>627</ele>
        <time>2016-01-11T14:17:16Z</time>
      </trkpt>
      <trkpt lat="48.31881" lon="7.03728">
        <ele>627</ele>
        <time>2016-01-11T14:19:16Z</time>
      </trkpt>
      <trkpt lat="48.31878" lon="7.03745">
        <ele>627</ele>
        <time>2016-01-11T14:21:16Z</time>
      </trkpt>
      <trkpt lat="48.31875" lon="7.03763">
        <ele>627</ele>
        <time>2016-01-11T14:23:16Z</time>
      </trkpt>
      <trkpt lat="48.31871" lon="7.03789">
        <ele>625</ele>
        <time>2016-01-11T14:25:16Z</time>
      </trkpt>
      <trkpt lat="48.31868" lon="7.03815">
        <ele>623</ele>
        <time>2016-01-11T14:27:16Z</time>
      </trkpt>
      <trkpt lat="48.31864" lon="7.03839">
        <ele>620</ele>
        <time>2016-01-11T14:29:16Z</time>
      </trkpt>
      <trkpt lat="48.31879" lon="7.03828">
        <ele>622</ele>
        <time>2016-01-11T14:31:16Z</time>
      </trkpt>
      <trkpt lat="48.31897" lon="7.03815">
        <ele>624</ele>
        <time>2016-01-11T14:33:16Z</time>
      </trkpt>
      <trkpt lat="48.31915" lon="7.03801">
        <ele>625</ele>
        <time>2016-01-11T14:35:16Z</time>
      </trkpt>
      <trkpt lat="48.31931" lon="7.03788">
        <ele>623</ele>
        <time>2016-01-11T14:37:16Z</time>
      </trkpt>
      <trkpt lat="48.31944" lon="7.03784">
        <ele>621</ele>
        <time>2016-01-11T14:39:16Z</time>
      </trkpt>
      <trkpt lat="48.31963" lon="7.03782">
        <ele>618</ele>
        <time>2016-01-11T14:41:16Z</time>
      </trkpt>
      <trkpt lat="48.3196" lon="7.03823">
        <ele>618</ele>
        <time>2016-01-11T14:43:16Z</time>
      </trkpt>
      <trkpt lat="48.31954" lon="7.03871">
        <ele>615</ele>
        <time>2016-01-11T14:45:16Z</time>
      </trkpt>
      <trkpt lat="48.31949" lon="7.03894">
        <ele>613</ele>
        <time>2016-01-11T14:47:16Z</time>
      </trkpt>
      <trkpt lat="48.3194" lon="7.03931">
        <ele>609</ele>
        <time>2016-01-11T14:49:16Z</time>
      </trkpt>
      <trkpt lat="48.31933" lon="7.03972">
        <ele>603</ele>
        <time>2016-01-11T14:51:16Z</time>
      </trkpt>
      <trkpt lat="48.31927" lon="7.04005">
        <ele>598</ele>
        <time>2016-01-11T14:53:16Z</time>
      </trkpt>
      <trkpt lat="48.31923" lon="7.0405">
        <ele>594</ele>
        <time>2016-01-11T14:55:16Z</time>
      </trkpt>
      <trkpt lat="48.31917" lon="7.0409">
        <ele>589</ele>
        <time>2016-01-11T14:57:16Z</time>
      </trkpt>
      <trkpt lat="48.31918" lon="7.04116">
        <ele>586</ele>
        <time>2016-01-11T14:59:16Z</time>
      </trkpt>
      <trkpt lat="48.31917" lon="7.04138">
        <ele>583</ele>
        <time>2016-01-11T15:01:16Z</time>
      </trkpt>
      <trkpt lat="48.31924" lon="7.0416">
        <ele>582</ele>
        <time>2016-01-11T15:03:16Z</time>
      </trkpt>
      <trkpt lat="48.31931" lon="7.04177">
        <ele>580</ele>
        <time>2016-01-11T15:05:16Z</time>
      </trkpt>
      <trkpt lat="48.31962" lon="7.04226">
        <ele>578</ele>
        <time>2016-01-11T15:07:16Z</time>
      </trkpt>
      <trkpt lat="48.31969" lon="7.04239">
        <ele>577</ele>
        <time>2016-01-11T15:09:16Z</time>
      </trkpt>
      <trkpt lat="48.31975" lon="7.04268">
        <ele>575</ele>
        <time>2016-01-11T15:11:16Z</time>
      </trkpt>
      <trkpt lat="48.31975" lon="7.04292">
        <ele>572</ele>
        <time>2016-01-11T15:13:16Z</time>
      </trkpt>
      <trkpt lat="48.31975" lon="7.04318">
        <ele>570</ele>
        <time>2016-01-11T15:15:16Z</time>
      </trkpt>
      <trkpt lat="48.31971" lon="7.04349">
        <ele>567</ele>
        <time>2016-01-11T15:17:16Z</time>
      </trkpt>
      <trkpt lat="48.31966" lon="7.04371">
        <ele>565</ele>
        <time>2016-01-11T15:19:16Z</time>
      </trkpt>
      <trkpt lat="48.31956" lon="7.04395">
        <ele>563</ele>
        <time>2016-01-11T15:21:16Z</time>
      </trkpt>
      <trkpt lat="48.31953" lon="7.0443">
        <ele>562</ele>
        <time>2016-01-11T15:23:16Z</time>
      </trkpt>
      <trkpt lat="48.31954" lon="7.04453">
        <ele>561</ele>
        <time>2016-01-11T15:25:16Z</time>
      </trkpt>
      <trkpt lat="48.31956" lon="7.04479">
        <ele>560</ele>
        <time>2016-01-11T15:27:16Z</time>
      </trkpt>
      <trkpt lat="48.31959" lon="7.04511">
        <ele>558</ele>
        <time>2016-01-11T15:29:16Z</time>
      </trkpt>
      <trkpt lat="48.31966" lon="7.04537">
        <ele>555</ele>
        <time>2016-01-11T15:31:16Z</time>
      </trkpt>
      <trkpt lat="48.31972" lon="7.04552">
        <ele>554</ele>
        <time>2016-01-11T15:33:16Z</time>
      </trkpt>
      <trkpt lat="48.31983" lon="7.04574">
        <ele>553</ele>
        <time>2016-01-11T15:35:16Z</time>
      </trkpt>
      <trkpt lat="48.31993" lon="7.04582">
        <ele>554</ele>
        <time>2016-01-11T15:37:16Z</time>
      </trkpt>
      <trkpt lat="48.32007" lon="7.04596">
        <ele>552</ele>
        <time>2016-01-11T15:39:16Z</time>
      </trkpt>
      <trkpt lat="48.32021" lon="7.04604">
        <ele>550</ele>
        <time>2016-01-11T15:41:16Z</time>
      </trkpt>
      <trkpt lat="48.3203" lon="7.04619">
        <ele>547</ele>
        <time>2016-01-11T15:43:16Z</time>
      </trkpt>
      <trkpt lat="48.32044" lon="7.04635">
        <ele>544</ele>
        <time>2016-01-11T15:45:16Z</time>
      </trkpt>
      <trkpt lat="48.32055" lon="7.04661">
        <ele>541</ele>
        <time>2016-01-11T15:47:16Z</time>
      </trkpt>
      <trkpt lat="48.32059" lon="7.0468">
        <ele>538</ele>
        <time>2016-01-11T15:49:16Z</time>
      </trkpt>
      <trkpt lat="48.32064" lon="7.04699">
        <ele>535</ele>
        <time>2016-01-11T15:51:16Z</time>
      </trkpt>
      <trkpt lat="48.3207" lon="7.04718">
        <ele>532</ele>
        <time>2016-01-11T15:53:16Z</time>
      </trkpt>
      <trkpt lat="48.32062" lon="7.0473">
        <ele>531</ele>
        <time>2016-01-11T15:55:16Z</time>
      </trkpt>
      <trkpt lat="48.32049" lon="7.04759">
        <ele>527</ele>
        <time>2016-01-11T15:57:16Z</time>
      </trkpt>
      <trkpt lat="48.32038" lon="7.04789">
        <ele>522</ele>
        <time>2016-01-11T15:59:16Z</time>
      </trkpt>
      <trkpt lat="48.32039" lon="7.04831">
        <ele>516</ele>
        <time>2016-01-11T16:01:16Z</time>
      </trkpt>
      <trkpt lat="48.32043" lon="7.04871">
        <ele>511</ele>
        <time>2016-01-11T16:03:16Z</time>
      </trkpt>
      <trkpt lat="48.32055" lon="7.0491">
        <ele>507</ele>
        <time>2016-01-11T16:05:16Z</time>
      </trkpt>
      <trkpt lat="48.32056" lon="7.04956">
        <ele>503</ele>
        <time>2016-01-11T16:07:16Z</time>
      </trkpt>
      <trkpt lat="48.32045" lon="7.05001">
        <ele>498</ele>
        <time>2016-01-11T16:09:16Z</time>
      </trkpt>
      <trkpt lat="48.32053" lon="7.05009">
        <ele>498</ele>
        <time>2016-01-11T16:11:16Z</time>
      </trkpt>
      <trkpt lat="48.32055" lon="7.05025">
        <ele>497</ele>
        <time>2016-01-11T16:13:16Z</time>
      </trkpt>
      <trkpt lat="48.32052" lon="7.05039">
        <ele>496</ele>
        <time>2016-01-11T16:15:16Z</time>
      </trkpt>
      <trkpt lat="48.32045" lon="7.05065">
        <ele>495</ele>
        <time>2016-01-11T16:17:16Z</time>
      </trkpt>
      <trkpt lat="48.32048" lon="7.05084">
        <ele>494</ele>
        <time>2016-01-11T16:19:16Z</time>
      </trkpt>
      <trkpt lat="48.3206" lon="7.05107">
        <ele>496</ele>
        <time>2016-01-11T16:21:16Z</time>
      </trkpt>
      <trkpt lat="48.32071" lon="7.05125">
        <ele>496</ele>
        <time>2016-01-11T16:23:16Z</time>
      </trkpt>
      <trkpt lat="48.32079" lon="7.05148">
        <ele>496</ele>
        <time>2016-01-11T16:25:16Z</time>
      </trkpt>
      <trkpt lat="48.32088" lon="7.05179">
        <ele>497</ele>
        <time>2016-01-11T16:27:16Z</time>
      </trkpt>
      <trkpt lat="48.32096" lon="7.05213">
        <ele>499</ele>
        <time>2016-01-11T16:29:16Z</time>
      </trkpt>
      <trkpt lat="48.32105" lon="7.05243">
        <ele>500</ele>
        <time>2016-01-11T16:31:16Z</time>
      </trkpt>
      <trkpt lat="48.3211" lon="7.05268">
        <ele>499</ele>
        <time>2016-01-11T16:33:16Z</time>
      </trkpt>
      <trkpt lat="48.32103" lon="7.05291">
        <ele>496</ele>
        <time>2016-01-11T16:35:16Z</time>
      </trkpt>
      <trkpt lat="48.32091" lon="7.05297">
        <ele>495</ele>
        <time>2016-01-11T16:37:16Z</time>
      </trkpt>
      <trkpt lat="48.32082" lon="7.05313">
        <ele>494</ele>
        <time>2016-01-11T16:39:16Z</time>
      </trkpt>
      <trkpt lat="48.3208" lon="7.0535">
        <ele>494</ele>
        <time>2016-01-11T16:41:16Z</time>
      </trkpt>
      <trkpt lat="48.3208" lon="7.05381">
        <ele>493</ele>
        <time>2016-01-11T16:43:16Z</time>
      </trkpt>
      <trkpt lat="48.32076" lon="7.05409">
        <ele>494</ele>
        <time>2016-01-11T16:45:16Z</time>
      </trkpt>
      <trkpt lat="48.32071" lon="7.05443">
        <ele>493</ele>
        <time>2016-01-11T16:47:16Z</time>
      </trkpt>
      <trkpt lat="48.32068" lon="7.05472">
        <ele>492</ele>
        <time>2016-01-11T16:49:16Z</time>
      </trkpt>
      <trkpt lat="48.3207" lon="7.05503">
        <ele>489</ele>
        <time>2016-01-11T16:51:16Z</time>
      </trkpt>
      <trkpt lat="48.3207" lon="7.05538">
        <ele>488</ele>
        <time>2016-01-11T16:53:16Z</time>
      </trkpt>
      <trkpt lat="48.32075" lon="7.05575">
        <ele>486</ele>
        <time>2016-01-11T16:55:16Z</time>
      </trkpt>
      <trkpt lat="48.32077" lon="7.05598">
        <ele>485</ele>
        <time>2016-01-11T16:57:16Z</time>
      </trkpt>
      <trkpt lat="48.32084" lon="7.05626">
        <ele>483</ele>
        <time>2016-01-11T16:59:16Z</time>
      </trkpt>
      <trkpt lat="48.32086" lon="7.05652">
        <ele>482</ele>
        <time>2016-01-11T17:01:16Z</time>
      </trkpt>
      <trkpt lat="48.32087" lon="7.05682">
        <ele>481</ele>
        <time>2016-01-11T17:03:16Z</time>
      </trkpt>
      <trkpt lat="48.32081" lon="7.05707">
        <ele>480</ele>
        <time>2016-01-11T17:05:16Z</time>
      </trkpt>
      <trkpt lat="48.32076" lon="7.05737">
        <ele>479</ele>
        <time>2016-01-11T17:07:16Z</time>
      </trkpt>
      <trkpt lat="48.32081" lon="7.05766">
        <ele>478</ele>
        <time>2016-01-11T17:09:16Z</time>
      </trkpt>
      <trkpt lat="48.32084" lon="7.05804">
        <ele>477</ele>
        <time>2016-01-11T17:11:16Z</time>
      </trkpt>
      <trkpt lat="48.32085" lon="7.05828">
        <ele>477</ele>
        <time>2016-01-11T17:13:16Z</time>
      </trkpt>
      <trkpt lat="48.32079" lon="7.05857">
        <ele>478</ele>
        <time>2016-01-11T17:15:16Z</time>
      </trkpt>
      <trkpt lat="48.32055" lon="7.05857">
        <ele>481</ele>
        <time>2016-01-11T17:17:16Z</time>
      </trkpt>
      <trkpt lat="48.32031" lon="7.05855">
        <ele>484</ele>
        <time>2016-01-11T17:19:16Z</time>
      </trkpt>
      <trkpt lat="48.32015" lon="7.05853">
        <ele>486</ele>
        <time>2016-01-11T17:21:16Z</time>
      </trkpt>
      <trkpt lat="48.32011" lon="7.05845">
        <ele>487</ele>
        <time>2016-01-11T17:23:16Z</time>
      </trkpt>
      <trkpt lat="48.32003" lon="7.0582">
        <ele>488</ele>
        <time>2016-01-11T17:25:16Z</time>
      </trkpt>
      <trkpt lat="48.31997" lon="7.05795">
        <ele>489</ele>
        <time>2016-01-11T17:27:16Z</time>
      </trkpt>
      <trkpt lat="48.3199" lon="7.05768">
        <ele>491</ele>
        <time>2016-01-11T17:29:16Z</time>
      </trkpt>
      <trkpt lat="48.31979" lon="7.05754">
        <ele>494</ele>
        <time>2016-01-11T17:31:16Z</time>
      </trkpt>
      <trkpt lat="48.31967" lon="7.05743">
        <ele>498</ele>
        <time>2016-01-11T17:33:16Z</time>
      </trkpt>
      <trkpt lat="48.31959" lon="7.05743">
        <ele>500</ele>
        <time>2016-01-11T17:35:16Z</time>
      </trkpt>
      <trkpt lat="48.31937" lon="7.05743">
        <ele>506</ele>
        <time>2016-01-11T17:37:16Z</time>
      </trkpt>
      <trkpt lat="48.31916" lon="7.05743">
        <ele>512</ele>
        <time>2016-01-11T17:39:16Z</time>
      </trkpt>
      <trkpt lat="48.31899" lon="7.05744">
        <ele>516</ele>
        <time>2016-01-11T17:41:16Z</time>
      </trkpt>
      <trkpt lat="48.31879" lon="7.05747">
        <ele>521</ele>
        <time>2016-01-11T17:43:16Z</time>
      </trkpt>
      <trkpt lat="48.31862" lon="7.05743">
        <ele>525</ele>
        <time>2016-01-11T17:45:16Z</time>
      </trkpt>
      <trkpt lat="48.31846" lon="7.0574">
        <ele>528</ele>
        <time>2016-01-11T17:47:16Z</time>
      </trkpt>
      <trkpt lat="48.31832" lon="7.05738">
        <ele>532</ele>
        <time>2016-01-11T17:49:16Z</time>
      </trkpt>
      <trkpt lat="48.31828" lon="7.0573">
        <ele>532</ele>
        <time>2016-01-11T17:51:16Z</time>
      </trkpt>
      <trkpt lat="48.31818" lon="7.05716">
        <ele>533</ele>
        <time>2016-01-11T17:53:16Z</time>
      </trkpt>
      <trkpt lat="48.31804" lon="7.05696">
        <ele>536</ele>
        <time>2016-01-11T17:55:16Z</time>
      </trkpt>
      <trkpt lat="48.31793" lon="7.05677">
        <ele>538</ele>
        <time>2016-01-11T17:57:16Z</time>
      </trkpt>
      <trkpt lat="48.31783" lon="7.05655">
        <ele>540</ele>
        <time>2016-01-11T17:59:16Z</time>
      </trkpt>
      <trkpt lat="48.31774" lon="7.05637">
        <ele>543</ele>
        <time>2016-01-11T18:01:16Z</time>
      </trkpt>
      <trkpt lat="48.31762" lon="7.05619">
        <ele>546</ele>
        <time>2016-01-11T18:03:16Z</time>
      </trkpt>
      <trkpt lat="48.3175" lon="7.05602">
        <ele>549</ele>
        <time>2016-01-11T18:05:16Z</time>
      </trkpt>
      <trkpt lat="48.31737" lon="7.0559">
        <ele>550</ele>
        <time>2016-01-11T18:07:16Z</time>
      </trkpt>
      <trkpt lat="48.31721" lon="7.05585">
        <ele>551</ele>
        <time>2016-01-11T18:09:16Z</time>
      </trkpt>
      <trkpt lat="48.31704" lon="7.05581">
        <ele>552</ele>
        <time>2016-01-11T18:11:16Z</time>
      </trkpt>
      <trkpt lat="48.31689" lon="7.05575">
        <ele>554</ele>
        <time>2016-01-11T18:13:16Z</time>
      </trkpt>
      <trkpt lat="48.31656" lon="7.05666">
        <ele>546</ele>
        <time>2016-01-11T18:15:16Z</time>
      </trkpt>
      <trkpt lat="48.31685" lon="7.05585">
        <ele>554</ele>
        <time>2016-01-11T18:17:16Z</time>
      </trkpt>
      <trkpt lat="48.31685" lon="7.05576">
        <ele>554</ele>
        <time>2016-01-11T18:19:16Z</time>
      </trkpt>
      <trkpt lat="48.31665" lon="7.05584">
        <ele>555</ele>
        <time>2016-01-11T18:21:16Z</time>
      </trkpt>
      <trkpt lat="48.31624" lon="7.05576">
        <ele>551</ele>
        <time>2016-01-11T18:23:16Z</time>
      </trkpt>
      <trkpt lat="48.31594" lon="7.05553">
        <ele>548</ele>
        <time>2016-01-11T18:25:16Z</time>
      </trkpt>
      <trkpt lat="48.31582" lon="7.05532">
        <ele>548</ele>
        <time>2016-01-11T18:27:16Z</time>
      </trkpt>
      <trkpt lat="48.31576" lon="7.05519">
        <ele>548</ele>
        <time>2016-01-11T18:29:16Z</time>
      </trkpt>
      <trkpt lat="48.3156" lon="7.05505">
        <ele>548</ele>
        <time>2016-01-11T18:31:16Z</time>
      </trkpt>
      <trkpt lat="48.31534" lon="7.05518">
        <ele>547</ele>
        <time>2016-01-11T18:33:16Z</time>
      </trkpt>
      <trkpt lat="48.31507" lon="7.0552">
        <ele>546</ele>
        <time>2016-01-11T18:35:16Z</time>
      </trkpt>
      <trkpt lat="48.31488" lon="7.05522">
        <ele>545</ele>
        <time>2016-01-11T18:37:16Z</time>
      </trkpt>
      <trkpt lat="48.31468" lon="7.05521">
        <ele>544</ele>
        <time>2016-01-11T18:39:16Z</time>
      </trkpt>
      <trkpt lat="48.31453" lon="7.05534">
        <ele>543</ele>
        <time>2016-01-11T18:41:16Z</time>
      </trkpt>
      <trkpt lat="48.31434" lon="7.05551">
        <ele>542</ele>
        <time>2016-01-11T18:43:16Z</time>
      </trkpt>
      <trkpt lat="48.31415" lon="7.05569">
        <ele>542</ele>
        <time>2016-01-11T18:45:16Z</time>
      </trkpt>
      <trkpt lat="48.31402" lon="7.0558">
        <ele>542</ele>
        <time>2016-01-11T18:47:16Z</time>
      </trkpt>
      <trkpt lat="48.31389" lon="7.05543">
        <ele>542</ele>
        <time>2016-01-11T18:49:16Z</time>
      </trkpt>
      <trkpt lat="48.31366" lon="7.05463">
        <ele>540</ele>
        <time>2016-01-11T18:51:16Z</time>
      </trkpt>
      <trkpt lat="48.31355" lon="7.05427">
        <ele>538</ele>
        <time>2016-01-11T18:53:16Z</time>
      </trkpt>
      <trkpt lat="48.3134" lon="7.05428">
        <ele>537</ele>
        <time>2016-01-11T18:55:16Z</time>
      </trkpt>
      <trkpt lat="48.31326" lon="7.05456">
        <ele>537</ele>
        <time>2016-01-11T18:57:16Z</time>
      </trkpt>
      <trkpt lat="48.31303" lon="7.05502">
        <ele>537</ele>
        <time>2016-01-11T18:59:16Z</time>
      </trkpt>
      <trkpt lat="48.31285" lon="7.05535">
        <ele>537</ele>
        <time>2016-01-11T19:01:16Z</time>
      </trkpt>
      <trkpt lat="48.31264" lon="7.05562">
        <ele>536</ele>
        <time>2016-01-11T19:03:16Z</time>
      </trkpt>
      <trkpt lat="48.31248" lon="7.05583">
        <ele>536</ele>
        <time>2016-01-11T19:05:16Z</time>
      </trkpt>
      <trkpt lat="48.31222" lon="7.05621">
        <ele>531</ele>
        <time>2016-01-11T19:07:16Z</time>
      </trkpt>
      <trkpt lat="48.31197" lon="7.0566">
        <ele>526</ele>
        <time>2016-01-11T19:09:16Z</time>
      </trkpt>
      <trkpt lat="48.31181" lon="7.05685">
        <ele>522</ele>
        <time>2016-01-11T19:11:16Z</time>
      </trkpt>
      <trkpt lat="48.31181" lon="7.05715">
        <ele>520</ele>
        <time>2016-01-11T19:13:16Z</time>
      </trkpt>
      <trkpt lat="48.3117" lon="7.05753">
        <ele>515</ele>
        <time>2016-01-11T19:15:16Z</time>
      </trkpt>
      <trkpt lat="48.31151" lon="7.05792">
        <ele>512</ele>
        <time>2016-01-11T19:17:16Z</time>
      </trkpt>
      <trkpt lat="48.31134" lon="7.05828">
        <ele>509</ele>
        <time>2016-01-11T19:19:16Z</time>
      </trkpt>
      <trkpt lat="48.31114" lon="7.05868">
        <ele>508</ele>
        <time>2016-01-11T19:21:16Z</time>
      </trkpt>
      <trkpt lat="48.31091" lon="7.05902">
        <ele>509</ele>
        <time>2016-01-11T19:23:16Z</time>
      </trkpt>
      <trkpt lat="48.31075" lon="7.05928">
        <ele>509</ele>
        <time>2016-01-11T19:25:16Z</time>
      </trkpt>
      <trkpt lat="48.31054" lon="7.05945">
        <ele>508</ele>
        <time>2016-01-11T19:27:16Z</time>
      </trkpt>
      <trkpt lat="48.3103" lon="7.05954">
        <ele>507</ele>
        <time>2016-01-11T19:29:16Z</time>
      </trkpt>
      <trkpt lat="48.31006" lon="7.0596">
        <ele>506</ele>
        <time>2016-01-11T19:31:16Z</time>
      </trkpt>
      <trkpt lat="48.30988" lon="7.0598">
        <ele>504</ele>
        <time>2016-01-11T19:33:16Z</time>
      </trkpt>
      <trkpt lat="48.30972" lon="7.06007">
        <ele>502</ele>
        <time>2016-01-11T19:35:16Z</time>
      </trkpt>
      <trkpt lat="48.30955" lon="7.06041">
        <ele>500</ele>
        <time>2016-01-11T19:37:16Z</time>
      </trkpt>
      <trkpt lat="48.30936" lon="7.06081">
        <ele>497</ele>
        <time>2016-01-11T19:39:16Z</time>
      </trkpt>
      <trkpt lat="48.30921" lon="7.06098">
        <ele>495</ele>
        <time>2016-01-11T19:41:16Z</time>
      </trkpt>
      <trkpt lat="48.30905" lon="7.06129">
        <ele>491</ele>
        <time>2016-01-11T19:43:16Z</time>
      </trkpt>
      <trkpt lat="48.30887" lon="7.06153">
        <ele>487</ele>
        <time>2016-01-11T19:45:16Z</time>
      </trkpt>
      <trkpt lat="48.3087" lon="7.06176">
        <ele>484</ele>
        <time>2016-01-11T19:47:16Z</time>
      </trkpt>
      <trkpt lat="48.30857" lon="7.06217">
        <ele>481</ele>
        <time>2016-01-11T19:49:16Z</time>
      </trkpt>
      <trkpt lat="48.30849" lon="7.06263">
        <ele>478</ele>
        <time>2016-01-11T19:51:16Z</time>
      </trkpt>
      <trkpt lat="48.30848" lon="7.06299">
        <ele>476</ele>
        <time>2016-01-11T19:53:16Z</time>
      </trkpt>
      <trkpt lat="48.3085" lon="7.06341">
        <ele>475</ele>
        <time>2016-01-11T19:55:16Z</time>
      </trkpt>
      <trkpt lat="48.30847" lon="7.0637">
        <ele>473</ele>
        <time>2016-01-11T19:57:16Z</time>
      </trkpt>
      <trkpt lat="48.30839" lon="7.06413">
        <ele>469</ele>
        <time>2016-01-11T19:59:16Z</time>
      </trkpt>
      <trkpt lat="48.30837" lon="7.06447">
        <ele>466</ele>
        <time>2016-01-11T20:01:16Z</time>
      </trkpt>
      <trkpt lat="48.30832" lon="7.06476">
        <ele>464</ele>
        <time>2016-01-11T20:03:16Z</time>
      </trkpt>
      <trkpt lat="48.30821" lon="7.06497">
        <ele>462</ele>
        <time>2016-01-11T20:05:16Z</time>
      </trkpt>
      <trkpt lat="48.30808" lon="7.06524">
        <ele>462</ele>
        <time>2016-01-11T20:07:16Z</time>
      </trkpt>
      <trkpt lat="48.30794" lon="7.0655">
        <ele>462</ele>
        <time>2016-01-11T20:09:16Z</time>
      </trkpt>
      <trkpt lat="48.30781" lon="7.06569">
        <ele>462</ele>
        <time>2016-01-11T20:11:16Z</time>
      </trkpt>
      <trkpt lat="48.30764" lon="7.06585">
        <ele>463</ele>
        <time>2016-01-11T20:13:16Z</time>
      </trkpt>
      <trkpt lat="48.30741" lon="7.06617">
        <ele>462</ele>
        <time>2016-01-11T20:15:16Z</time>
      </trkpt>
      <trkpt lat="48.30723" lon="7.06622">
        <ele>461</ele>
        <time>2016-01-11T20:17:16Z</time>
      </trkpt>
      <trkpt lat="48.30711" lon="7.06624">
        <ele>460</ele>
        <time>2016-01-11T20:19:16Z</time>
      </trkpt>
      <trkpt lat="48.30692" lon="7.06616">
        <ele>459</ele>
        <time>2016-01-11T20:21:16Z</time>
      </trkpt>
      <trkpt lat="48.30675" lon="7.06607">
        <ele>458</ele>
        <time>2016-01-11T20:23:16Z</time>
      </trkpt>
      <trkpt lat="48.30655" lon="7.066">
        <ele>457</ele>
        <time>2016-01-11T20:25:16Z</time>
      </trkpt>
      <trkpt lat="48.30633" lon="7.0659">
        <ele>455</ele>
        <time>2016-01-11T20:27:16Z</time>
      </trkpt>
      <trkpt lat="48.30619" lon="7.06586">
        <ele>454</ele>
        <time>2016-01-11T20:29:16Z</time>
      </trkpt>
      <trkpt lat="48.30602" lon="7.06588">
        <ele>452</ele>
        <time>2016-01-11T20:31:16Z</time>
      </trkpt>
      <trkpt lat="48.30585" lon="7.06593">
        <ele>450</ele>
        <time>2016-01-11T20:33:16Z</time>
      </trkpt>
      <trkpt lat="48.30566" lon="7.06602">
        <ele>449</ele>
        <time>2016-01-11T20:35:16Z</time>
      </trkpt>
      <trkpt lat="48.30545" lon="7.06611">
        <ele>449</ele>
        <time>2016-01-11T20:37:16Z</time>
      </trkpt>
      <trkpt lat="48.30527" lon="7.06616">
        <ele>448</ele>
        <time>2016-01-11T20:39:16Z</time>
      </trkpt>
      <trkpt lat="48.3051" lon="7.06619">
        <ele>448</ele>
        <time>2016-01-11T20:41:16Z</time>
      </trkpt>
      <trkpt lat="48.30498" lon="7.06612">
        <ele>446</ele>
        <time>2016-01-11T20:43:16Z</time>
      </trkpt>
      <trkpt lat="48.30485" lon="7.06604">
        <ele>444</ele>
        <time>2016-01-11T20:45:16Z</time>
      </trkpt>
      <trkpt lat="48.30466" lon="7.06609">
        <ele>442</ele>
        <time>2016-01-11T20:47:16Z</time>
      </trkpt>
      <trkpt lat="48.30446" lon="7.06619">
        <ele>439</ele>
        <time>2016-01-11T20:49:16Z</time>
      </trkpt>
      <trkpt lat="48.30424" lon="7.0663">
        <ele>437</ele>
        <time>2016-01-11T20:51:16Z</time>
      </trkpt>
      <trkpt lat="48.30402" lon="7.06652">
        <ele>434</ele>
        <time>2016-01-11T20:53:16Z</time>
      </trkpt>
      <trkpt lat="48.30383" lon="7.06675">
        <ele>430</ele>
        <time>2016-01-11T20:55:16Z</time>
      </trkpt>
      <trkpt lat="48.3037" lon="7.06704">
        <ele>430</ele>
        <time>2016-01-11T20:57:16Z</time>
      </trkpt>
      <trkpt lat="48.30357" lon="7.06729">
        <ele>428</ele>
        <time>2016-01-11T20:59:16Z</time>
      </trkpt>
      <trkpt lat="48.30342" lon="7.06752">
        <ele>426</ele>
        <time>2016-01-11T21:01:16Z</time>
      </trkpt>
      <trkpt lat="48.30321" lon="7.06778">
        <ele>425</ele>
        <time>2016-01-11T21:03:16Z</time>
      </trkpt>
      <trkpt lat="48.30303" lon="7.06803">
        <ele>423</ele>
        <time>2016-01-11T21:05:16Z</time>
      </trkpt>
      <trkpt lat="48.30286" lon="7.06823">
        <ele>421</ele>
        <time>2016-01-11T21:07:16Z</time>
      </trkpt>
      <trkpt lat="48.30268" lon="7.06848">
        <ele>417</ele>
        <time>2016-01-11T21:09:16Z</time>
      </trkpt>
      <trkpt lat="48.30256" lon="7.06875">
        <ele>415</ele>
        <time>2016-01-11T21:11:16Z</time>
      </trkpt>
      <trkpt lat="48.3024" lon="7.06915">
        <ele>414</ele>
        <time>2016-01-11T21:13:16Z</time>
      </trkpt>
      <trkpt lat="48.30228" lon="7.06935">
        <ele>413</ele>
        <time>2016-01-11T21:15:16Z</time>
      </trkpt>
      <trkpt lat="48.30212" lon="7.06961">
        <ele>410</ele>
        <time>2016-01-11T21:17:16Z</time>
      </trkpt>
      <trkpt lat="48.30205" lon="7.06977">
        <ele>409</ele>
        <time>2016-01-11T21:19:16Z</time>
      </trkpt>
      <trkpt lat="48.30173" lon="7.06993">
        <ele>402</ele>
        <time>2016-01-11T21:21:16Z</time>
      </trkpt>
    </trkseg>
  </trk>
</gpx>